<?xml version="1.0" encoding="UTF-8" standalone="no" ?>
<gpx xmlns="http://www.topografix.com/GPX/1/1" xmlns:xsi="http://www.w3.org/2001/XMLSchema-instance" xsi:schemaLocation="http://www.topografix.com/GPX/1/1 http://www.topografix.com/GPX/1/1/gpx.xsd" version="1.1" creator="VisuGPX - https://www.visugpx.com">
  <metadata>
    <name>marquette-menin-marquette</name>
    <desc><![CDATA[parcours mi bitume, mi chemin, tres roulant , 160 m de dénivelé ]]></desc>
  </metadata>
  <trk>
    <name><![CDATA[20180306190512-eveVq]]></name>
    <trkseg>
      <trkpt lat="50.68004" lon="3.06883">
        <ele>20</ele>
        <time>2010-01-01T00:03:46Z</time>
      </trkpt>
      <trkpt lat="50.68009" lon="3.06952">
        <ele>20</ele>
        <time>2010-01-01T00:04:04Z</time>
      </trkpt>
      <trkpt lat="50.68012" lon="3.06959">
        <ele>20</ele>
        <time>2010-01-01T00:04:06Z</time>
      </trkpt>
      <trkpt lat="50.68015" lon="3.06972">
        <ele>20</ele>
        <time>2010-01-01T00:04:10Z</time>
      </trkpt>
      <trkpt lat="50.68021" lon="3.06989">
        <ele>20</ele>
        <time>2010-01-01T00:04:14Z</time>
      </trkpt>
      <trkpt lat="50.68023" lon="3.07012">
        <ele>19.9</ele>
        <time>2010-01-01T00:04:20Z</time>
      </trkpt>
      <trkpt lat="50.68027" lon="3.0703">
        <ele>20</ele>
        <time>2010-01-01T00:04:25Z</time>
      </trkpt>
      <trkpt lat="50.68041" lon="3.07102">
        <ele>19</ele>
        <time>2010-01-01T00:04:44Z</time>
      </trkpt>
      <trkpt lat="50.68042" lon="3.07117">
        <ele>19</ele>
        <time>2010-01-01T00:04:48Z</time>
      </trkpt>
      <trkpt lat="50.68041" lon="3.07128">
        <ele>19</ele>
        <time>2010-01-01T00:04:51Z</time>
      </trkpt>
      <trkpt lat="50.68038" lon="3.0713">
        <ele>19</ele>
        <time>2010-01-01T00:04:52Z</time>
      </trkpt>
      <trkpt lat="50.6804" lon="3.07133">
        <ele>19</ele>
        <time>2010-01-01T00:04:53Z</time>
      </trkpt>
      <trkpt lat="50.68036" lon="3.07166">
        <ele>19</ele>
        <time>2010-01-01T00:05:02Z</time>
      </trkpt>
      <trkpt lat="50.68034" lon="3.07216">
        <ele>19.8</ele>
        <time>2010-01-01T00:05:15Z</time>
      </trkpt>
      <trkpt lat="50.68039" lon="3.0725">
        <ele>20</ele>
        <time>2010-01-01T00:05:23Z</time>
      </trkpt>
      <trkpt lat="50.68048" lon="3.07278">
        <ele>20</ele>
        <time>2010-01-01T00:05:31Z</time>
      </trkpt>
      <trkpt lat="50.68088" lon="3.07382">
        <ele>20</ele>
        <time>2010-01-01T00:06:02Z</time>
      </trkpt>
      <trkpt lat="50.68086" lon="3.07385">
        <ele>20</ele>
        <time>2010-01-01T00:06:03Z</time>
      </trkpt>
      <trkpt lat="50.68081" lon="3.07397">
        <ele>20</ele>
        <time>2010-01-01T00:06:07Z</time>
      </trkpt>
      <trkpt lat="50.68078" lon="3.07402">
        <ele>19.9</ele>
        <time>2010-01-01T00:06:09Z</time>
      </trkpt>
      <trkpt lat="50.68048" lon="3.0743">
        <ele>19.1</ele>
        <time>2010-01-01T00:06:23Z</time>
      </trkpt>
      <trkpt lat="50.67994" lon="3.0748">
        <ele>19</ele>
        <time>2010-01-01T00:06:48Z</time>
      </trkpt>
      <trkpt lat="50.67974" lon="3.07503">
        <ele>19</ele>
        <time>2010-01-01T00:06:58Z</time>
      </trkpt>
      <trkpt lat="50.67941" lon="3.07549">
        <ele>20</ele>
        <time>2010-01-01T00:07:15Z</time>
      </trkpt>
      <trkpt lat="50.67921" lon="3.07587">
        <ele>20</ele>
        <time>2010-01-01T00:07:28Z</time>
      </trkpt>
      <trkpt lat="50.67916" lon="3.07603">
        <ele>20</ele>
        <time>2010-01-01T00:07:32Z</time>
      </trkpt>
      <trkpt lat="50.6791" lon="3.0763">
        <ele>19.5</ele>
        <time>2010-01-01T00:07:40Z</time>
      </trkpt>
      <trkpt lat="50.67896" lon="3.07718">
        <ele>20</ele>
        <time>2010-01-01T00:08:03Z</time>
      </trkpt>
      <trkpt lat="50.6789" lon="3.07744">
        <ele>19.2</ele>
        <time>2010-01-01T00:08:10Z</time>
      </trkpt>
      <trkpt lat="50.6786" lon="3.07823">
        <ele>20</ele>
        <time>2010-01-01T00:08:33Z</time>
      </trkpt>
      <trkpt lat="50.67853" lon="3.07837">
        <ele>20</ele>
        <time>2010-01-01T00:08:38Z</time>
      </trkpt>
      <trkpt lat="50.67778" lon="3.07958">
        <ele>20.5</ele>
        <time>2010-01-01T00:09:20Z</time>
      </trkpt>
      <trkpt lat="50.67708" lon="3.08054">
        <ele>21</ele>
        <time>2010-01-01T00:09:58Z</time>
      </trkpt>
      <trkpt lat="50.67684" lon="3.08095">
        <ele>20.2</ele>
        <time>2010-01-01T00:10:12Z</time>
      </trkpt>
      <trkpt lat="50.67718" lon="3.08127">
        <ele>20.9</ele>
        <time>2010-01-01T00:10:28Z</time>
      </trkpt>
      <trkpt lat="50.67723" lon="3.08136">
        <ele>21</ele>
        <time>2010-01-01T00:10:31Z</time>
      </trkpt>
      <trkpt lat="50.67797" lon="3.08203">
        <ele>21</ele>
        <time>2010-01-01T00:11:05Z</time>
      </trkpt>
      <trkpt lat="50.67871" lon="3.08268">
        <ele>21</ele>
        <time>2010-01-01T00:11:39Z</time>
      </trkpt>
      <trkpt lat="50.67908" lon="3.08303">
        <ele>21.1</ele>
        <time>2010-01-01T00:11:56Z</time>
      </trkpt>
      <trkpt lat="50.67919" lon="3.08314">
        <ele>21</ele>
        <time>2010-01-01T00:12:01Z</time>
      </trkpt>
      <trkpt lat="50.67938" lon="3.08327">
        <ele>21</ele>
        <time>2010-01-01T00:12:09Z</time>
      </trkpt>
      <trkpt lat="50.67963" lon="3.08338">
        <ele>21.1</ele>
        <time>2010-01-01T00:12:20Z</time>
      </trkpt>
      <trkpt lat="50.68057" lon="3.0837">
        <ele>21</ele>
        <time>2010-01-01T00:12:58Z</time>
      </trkpt>
      <trkpt lat="50.68204" lon="3.08421">
        <ele>21</ele>
        <time>2010-01-01T00:13:59Z</time>
      </trkpt>
      <trkpt lat="50.68261" lon="3.08441">
        <ele>21.9</ele>
        <time>2010-01-01T00:14:22Z</time>
      </trkpt>
      <trkpt lat="50.68274" lon="3.08449">
        <ele>22</ele>
        <time>2010-01-01T00:14:28Z</time>
      </trkpt>
      <trkpt lat="50.68278" lon="3.0847">
        <ele>22</ele>
        <time>2010-01-01T00:14:33Z</time>
      </trkpt>
      <trkpt lat="50.68284" lon="3.08477">
        <ele>22</ele>
        <time>2010-01-01T00:14:36Z</time>
      </trkpt>
      <trkpt lat="50.6829" lon="3.08482">
        <ele>22</ele>
        <time>2010-01-01T00:14:39Z</time>
      </trkpt>
      <trkpt lat="50.68297" lon="3.08483">
        <ele>22</ele>
        <time>2010-01-01T00:14:42Z</time>
      </trkpt>
      <trkpt lat="50.68306" lon="3.08478">
        <ele>22</ele>
        <time>2010-01-01T00:14:45Z</time>
      </trkpt>
      <trkpt lat="50.68313" lon="3.0847">
        <ele>22.1</ele>
        <time>2010-01-01T00:14:49Z</time>
      </trkpt>
      <trkpt lat="50.68315" lon="3.08469">
        <ele>22.2</ele>
        <time>2010-01-01T00:14:50Z</time>
      </trkpt>
      <trkpt lat="50.68328" lon="3.08467">
        <ele>22.3</ele>
        <time>2010-01-01T00:14:55Z</time>
      </trkpt>
      <trkpt lat="50.68362" lon="3.08478">
        <ele>22.8</ele>
        <time>2010-01-01T00:15:09Z</time>
      </trkpt>
      <trkpt lat="50.68377" lon="3.08484">
        <ele>23</ele>
        <time>2010-01-01T00:15:15Z</time>
      </trkpt>
      <trkpt lat="50.68388" lon="3.08493">
        <ele>22.8</ele>
        <time>2010-01-01T00:15:20Z</time>
      </trkpt>
      <trkpt lat="50.68391" lon="3.08508">
        <ele>23</ele>
        <time>2010-01-01T00:15:24Z</time>
      </trkpt>
      <trkpt lat="50.68398" lon="3.08518">
        <ele>22.8</ele>
        <time>2010-01-01T00:15:28Z</time>
      </trkpt>
      <trkpt lat="50.68406" lon="3.08523">
        <ele>22.5</ele>
        <time>2010-01-01T00:15:31Z</time>
      </trkpt>
      <trkpt lat="50.68415" lon="3.08523">
        <ele>22.2</ele>
        <time>2010-01-01T00:15:35Z</time>
      </trkpt>
      <trkpt lat="50.68423" lon="3.08517">
        <ele>22.4</ele>
        <time>2010-01-01T00:15:38Z</time>
      </trkpt>
      <trkpt lat="50.68428" lon="3.0851">
        <ele>22.6</ele>
        <time>2010-01-01T00:15:41Z</time>
      </trkpt>
      <trkpt lat="50.68441" lon="3.0851">
        <ele>22.6</ele>
        <time>2010-01-01T00:15:46Z</time>
      </trkpt>
      <trkpt lat="50.68515" lon="3.08534">
        <ele>23</ele>
        <time>2010-01-01T00:16:17Z</time>
      </trkpt>
      <trkpt lat="50.68707" lon="3.08605">
        <ele>26.5</ele>
        <time>2010-01-01T00:17:35Z</time>
      </trkpt>
      <trkpt lat="50.68715" lon="3.08614">
        <ele>26.8</ele>
        <time>2010-01-01T00:17:39Z</time>
      </trkpt>
      <trkpt lat="50.6872" lon="3.08617">
        <ele>26.9</ele>
        <time>2010-01-01T00:17:42Z</time>
      </trkpt>
      <trkpt lat="50.68732" lon="3.08631">
        <ele>27.4</ele>
        <time>2010-01-01T00:17:48Z</time>
      </trkpt>
      <trkpt lat="50.6874" lon="3.08647">
        <ele>27.7</ele>
        <time>2010-01-01T00:17:53Z</time>
      </trkpt>
      <trkpt lat="50.68748" lon="3.08675">
        <ele>28</ele>
        <time>2010-01-01T00:18:00Z</time>
      </trkpt>
      <trkpt lat="50.68748" lon="3.0869">
        <ele>28</ele>
        <time>2010-01-01T00:18:04Z</time>
      </trkpt>
      <trkpt lat="50.68745" lon="3.08799">
        <ele>28.8</ele>
        <time>2010-01-01T00:18:32Z</time>
      </trkpt>
      <trkpt lat="50.68737" lon="3.09016">
        <ele>28</ele>
        <time>2010-01-01T00:19:27Z</time>
      </trkpt>
      <trkpt lat="50.68732" lon="3.09034">
        <ele>28</ele>
        <time>2010-01-01T00:19:32Z</time>
      </trkpt>
      <trkpt lat="50.68722" lon="3.09062">
        <ele>27.8</ele>
        <time>2010-01-01T00:19:40Z</time>
      </trkpt>
      <trkpt lat="50.6872" lon="3.09061">
        <ele>27.7</ele>
        <time>2010-01-01T00:19:41Z</time>
      </trkpt>
      <trkpt lat="50.68713" lon="3.09064">
        <ele>27.5</ele>
        <time>2010-01-01T00:19:44Z</time>
      </trkpt>
      <trkpt lat="50.68709" lon="3.09074">
        <ele>27.2</ele>
        <time>2010-01-01T00:19:47Z</time>
      </trkpt>
      <trkpt lat="50.68708" lon="3.0908">
        <ele>27.1</ele>
        <time>2010-01-01T00:19:49Z</time>
      </trkpt>
      <trkpt lat="50.6871" lon="3.09088">
        <ele>27</ele>
        <time>2010-01-01T00:19:51Z</time>
      </trkpt>
      <trkpt lat="50.68713" lon="3.09093">
        <ele>27</ele>
        <time>2010-01-01T00:19:52Z</time>
      </trkpt>
      <trkpt lat="50.68719" lon="3.09096">
        <ele>27</ele>
        <time>2010-01-01T00:19:55Z</time>
      </trkpt>
      <trkpt lat="50.68721" lon="3.09096">
        <ele>27</ele>
        <time>2010-01-01T00:19:56Z</time>
      </trkpt>
      <trkpt lat="50.68723" lon="3.09107">
        <ele>27</ele>
        <time>2010-01-01T00:19:59Z</time>
      </trkpt>
      <trkpt lat="50.68725" lon="3.09118">
        <ele>27</ele>
        <time>2010-01-01T00:20:02Z</time>
      </trkpt>
      <trkpt lat="50.6873" lon="3.09145">
        <ele>27</ele>
        <time>2010-01-01T00:20:09Z</time>
      </trkpt>
      <trkpt lat="50.68716" lon="3.0944">
        <ele>23</ele>
        <time>2010-01-01T00:21:24Z</time>
      </trkpt>
      <trkpt lat="50.6873" lon="3.09455">
        <ele>23</ele>
        <time>2010-01-01T00:21:31Z</time>
      </trkpt>
      <trkpt lat="50.68762" lon="3.09498">
        <ele>23</ele>
        <time>2010-01-01T00:21:47Z</time>
      </trkpt>
      <trkpt lat="50.68798" lon="3.09546">
        <ele>23.7</ele>
        <time>2010-01-01T00:22:06Z</time>
      </trkpt>
      <trkpt lat="50.68823" lon="3.09581">
        <ele>23.7</ele>
        <time>2010-01-01T00:22:20Z</time>
      </trkpt>
      <trkpt lat="50.68837" lon="3.09613">
        <ele>23.8</ele>
        <time>2010-01-01T00:22:29Z</time>
      </trkpt>
      <trkpt lat="50.68861" lon="3.09677">
        <ele>23</ele>
        <time>2010-01-01T00:22:48Z</time>
      </trkpt>
      <trkpt lat="50.68869" lon="3.09697">
        <ele>23.3</ele>
        <time>2010-01-01T00:22:54Z</time>
      </trkpt>
      <trkpt lat="50.68884" lon="3.09723">
        <ele>23.8</ele>
        <time>2010-01-01T00:23:03Z</time>
      </trkpt>
      <trkpt lat="50.68933" lon="3.09798">
        <ele>24</ele>
        <time>2010-01-01T00:23:31Z</time>
      </trkpt>
      <trkpt lat="50.68968" lon="3.0985">
        <ele>24</ele>
        <time>2010-01-01T00:23:50Z</time>
      </trkpt>
      <trkpt lat="50.68979" lon="3.09872">
        <ele>24</ele>
        <time>2010-01-01T00:23:57Z</time>
      </trkpt>
      <trkpt lat="50.69021" lon="3.0998">
        <ele>23</ele>
        <time>2010-01-01T00:24:29Z</time>
      </trkpt>
      <trkpt lat="50.6905" lon="3.10039">
        <ele>23</ele>
        <time>2010-01-01T00:24:48Z</time>
      </trkpt>
      <trkpt lat="50.69067" lon="3.10071">
        <ele>23</ele>
        <time>2010-01-01T00:24:59Z</time>
      </trkpt>
      <trkpt lat="50.69084" lon="3.10103">
        <ele>23</ele>
        <time>2010-01-01T00:25:09Z</time>
      </trkpt>
      <trkpt lat="50.69114" lon="3.10148">
        <ele>23</ele>
        <time>2010-01-01T00:25:26Z</time>
      </trkpt>
      <trkpt lat="50.69144" lon="3.10191">
        <ele>23</ele>
        <time>2010-01-01T00:25:42Z</time>
      </trkpt>
      <trkpt lat="50.69163" lon="3.10213">
        <ele>23</ele>
        <time>2010-01-01T00:25:51Z</time>
      </trkpt>
      <trkpt lat="50.69217" lon="3.10258">
        <ele>23.9</ele>
        <time>2010-01-01T00:26:16Z</time>
      </trkpt>
      <trkpt lat="50.69257" lon="3.10294">
        <ele>24.3</ele>
        <time>2010-01-01T00:26:34Z</time>
      </trkpt>
      <trkpt lat="50.69298" lon="3.10356">
        <ele>24.8</ele>
        <time>2010-01-01T00:26:57Z</time>
      </trkpt>
      <trkpt lat="50.69352" lon="3.10438">
        <ele>25</ele>
        <time>2010-01-01T00:27:27Z</time>
      </trkpt>
      <trkpt lat="50.69408" lon="3.10517">
        <ele>25</ele>
        <time>2010-01-01T00:27:57Z</time>
      </trkpt>
      <trkpt lat="50.69414" lon="3.10524">
        <ele>25</ele>
        <time>2010-01-01T00:28:00Z</time>
      </trkpt>
      <trkpt lat="50.69422" lon="3.10527">
        <ele>25</ele>
        <time>2010-01-01T00:28:03Z</time>
      </trkpt>
      <trkpt lat="50.69431" lon="3.10525">
        <ele>25.1</ele>
        <time>2010-01-01T00:28:07Z</time>
      </trkpt>
      <trkpt lat="50.69441" lon="3.1052">
        <ele>25.2</ele>
        <time>2010-01-01T00:28:11Z</time>
      </trkpt>
      <trkpt lat="50.6945" lon="3.1052">
        <ele>25.4</ele>
        <time>2010-01-01T00:28:15Z</time>
      </trkpt>
      <trkpt lat="50.69457" lon="3.10523">
        <ele>25.5</ele>
        <time>2010-01-01T00:28:18Z</time>
      </trkpt>
      <trkpt lat="50.6948" lon="3.10554">
        <ele>26</ele>
        <time>2010-01-01T00:28:30Z</time>
      </trkpt>
      <trkpt lat="50.69488" lon="3.10562">
        <ele>26</ele>
        <time>2010-01-01T00:28:34Z</time>
      </trkpt>
      <trkpt lat="50.69498" lon="3.10566">
        <ele>26</ele>
        <time>2010-01-01T00:28:38Z</time>
      </trkpt>
      <trkpt lat="50.69523" lon="3.1056">
        <ele>26</ele>
        <time>2010-01-01T00:28:48Z</time>
      </trkpt>
      <trkpt lat="50.69532" lon="3.10561">
        <ele>26</ele>
        <time>2010-01-01T00:28:51Z</time>
      </trkpt>
      <trkpt lat="50.6954" lon="3.10568">
        <ele>26</ele>
        <time>2010-01-01T00:28:55Z</time>
      </trkpt>
      <trkpt lat="50.69551" lon="3.10591">
        <ele>26</ele>
        <time>2010-01-01T00:29:02Z</time>
      </trkpt>
      <trkpt lat="50.69573" lon="3.10633">
        <ele>26</ele>
        <time>2010-01-01T00:29:16Z</time>
      </trkpt>
      <trkpt lat="50.69581" lon="3.10641">
        <ele>26</ele>
        <time>2010-01-01T00:29:20Z</time>
      </trkpt>
      <trkpt lat="50.6959" lon="3.10646">
        <ele>26</ele>
        <time>2010-01-01T00:29:24Z</time>
      </trkpt>
      <trkpt lat="50.6962" lon="3.10655">
        <ele>26</ele>
        <time>2010-01-01T00:29:36Z</time>
      </trkpt>
      <trkpt lat="50.6963" lon="3.1066">
        <ele>26</ele>
        <time>2010-01-01T00:29:40Z</time>
      </trkpt>
      <trkpt lat="50.69636" lon="3.10667">
        <ele>26</ele>
        <time>2010-01-01T00:29:43Z</time>
      </trkpt>
      <trkpt lat="50.69638" lon="3.1067">
        <ele>26</ele>
        <time>2010-01-01T00:29:44Z</time>
      </trkpt>
      <trkpt lat="50.69645" lon="3.10663">
        <ele>26</ele>
        <time>2010-01-01T00:29:48Z</time>
      </trkpt>
      <trkpt lat="50.69666" lon="3.10649">
        <ele>26</ele>
        <time>2010-01-01T00:29:57Z</time>
      </trkpt>
      <trkpt lat="50.69675" lon="3.1064">
        <ele>26</ele>
        <time>2010-01-01T00:30:01Z</time>
      </trkpt>
      <trkpt lat="50.69672" lon="3.10643">
        <ele>26</ele>
        <time>2010-01-01T00:30:02Z</time>
      </trkpt>
      <trkpt lat="50.69675" lon="3.1065">
        <ele>26</ele>
        <time>2010-01-01T00:30:05Z</time>
      </trkpt>
      <trkpt lat="50.69686" lon="3.10673">
        <ele>26</ele>
        <time>2010-01-01T00:30:12Z</time>
      </trkpt>
      <trkpt lat="50.69702" lon="3.10695">
        <ele>26.3</ele>
        <time>2010-01-01T00:30:20Z</time>
      </trkpt>
      <trkpt lat="50.69718" lon="3.10712">
        <ele>26.8</ele>
        <time>2010-01-01T00:30:28Z</time>
      </trkpt>
      <trkpt lat="50.69757" lon="3.10747">
        <ele>26.9</ele>
        <time>2010-01-01T00:30:46Z</time>
      </trkpt>
      <trkpt lat="50.69778" lon="3.1076">
        <ele>27</ele>
        <time>2010-01-01T00:30:55Z</time>
      </trkpt>
      <trkpt lat="50.69816" lon="3.10773">
        <ele>27</ele>
        <time>2010-01-01T00:31:11Z</time>
      </trkpt>
      <trkpt lat="50.69841" lon="3.10787">
        <ele>27.5</ele>
        <time>2010-01-01T00:31:21Z</time>
      </trkpt>
      <trkpt lat="50.69884" lon="3.10818">
        <ele>28</ele>
        <time>2010-01-01T00:31:40Z</time>
      </trkpt>
      <trkpt lat="50.6991" lon="3.1084">
        <ele>28</ele>
        <time>2010-01-01T00:31:52Z</time>
      </trkpt>
      <trkpt lat="50.6994" lon="3.10871">
        <ele>28</ele>
        <time>2010-01-01T00:32:06Z</time>
      </trkpt>
      <trkpt lat="50.69962" lon="3.10893">
        <ele>28.1</ele>
        <time>2010-01-01T00:32:17Z</time>
      </trkpt>
      <trkpt lat="50.69966" lon="3.109">
        <ele>28.4</ele>
        <time>2010-01-01T00:32:19Z</time>
      </trkpt>
      <trkpt lat="50.69967" lon="3.10905">
        <ele>28.6</ele>
        <time>2010-01-01T00:32:21Z</time>
      </trkpt>
      <trkpt lat="50.69967" lon="3.10908">
        <ele>28.7</ele>
        <time>2010-01-01T00:32:21Z</time>
      </trkpt>
      <trkpt lat="50.69966" lon="3.10917">
        <ele>29</ele>
        <time>2010-01-01T00:32:24Z</time>
      </trkpt>
      <trkpt lat="50.69962" lon="3.10926">
        <ele>29</ele>
        <time>2010-01-01T00:32:26Z</time>
      </trkpt>
      <trkpt lat="50.69953" lon="3.10945">
        <ele>29</ele>
        <time>2010-01-01T00:32:32Z</time>
      </trkpt>
      <trkpt lat="50.69951" lon="3.10957">
        <ele>29</ele>
        <time>2010-01-01T00:32:36Z</time>
      </trkpt>
      <trkpt lat="50.69953" lon="3.10969">
        <ele>29</ele>
        <time>2010-01-01T00:32:39Z</time>
      </trkpt>
      <trkpt lat="50.69961" lon="3.10994">
        <ele>29</ele>
        <time>2010-01-01T00:32:46Z</time>
      </trkpt>
      <trkpt lat="50.69982" lon="3.11034">
        <ele>29.1</ele>
        <time>2010-01-01T00:32:59Z</time>
      </trkpt>
      <trkpt lat="50.70004" lon="3.1107">
        <ele>29.5</ele>
        <time>2010-01-01T00:33:12Z</time>
      </trkpt>
      <trkpt lat="50.70011" lon="3.11078">
        <ele>29.8</ele>
        <time>2010-01-01T00:33:15Z</time>
      </trkpt>
      <trkpt lat="50.70018" lon="3.11079">
        <ele>29.8</ele>
        <time>2010-01-01T00:33:18Z</time>
      </trkpt>
      <trkpt lat="50.7003" lon="3.11074">
        <ele>29.6</ele>
        <time>2010-01-01T00:33:23Z</time>
      </trkpt>
      <trkpt lat="50.7004" lon="3.11071">
        <ele>29.3</ele>
        <time>2010-01-01T00:33:27Z</time>
      </trkpt>
      <trkpt lat="50.70052" lon="3.11069">
        <ele>29.1</ele>
        <time>2010-01-01T00:33:32Z</time>
      </trkpt>
      <trkpt lat="50.70068" lon="3.11072">
        <ele>28.8</ele>
        <time>2010-01-01T00:33:38Z</time>
      </trkpt>
      <trkpt lat="50.70109" lon="3.11095">
        <ele>29</ele>
        <time>2010-01-01T00:33:56Z</time>
      </trkpt>
      <trkpt lat="50.70124" lon="3.111">
        <ele>29.3</ele>
        <time>2010-01-01T00:34:02Z</time>
      </trkpt>
      <trkpt lat="50.70135" lon="3.11101">
        <ele>29.5</ele>
        <time>2010-01-01T00:34:06Z</time>
      </trkpt>
      <trkpt lat="50.70153" lon="3.11096">
        <ele>29.7</ele>
        <time>2010-01-01T00:34:14Z</time>
      </trkpt>
      <trkpt lat="50.70168" lon="3.11095">
        <ele>30</ele>
        <time>2010-01-01T00:34:20Z</time>
      </trkpt>
      <trkpt lat="50.70182" lon="3.11101">
        <ele>29.4</ele>
        <time>2010-01-01T00:34:25Z</time>
      </trkpt>
      <trkpt lat="50.70205" lon="3.11114">
        <ele>29.1</ele>
        <time>2010-01-01T00:34:35Z</time>
      </trkpt>
      <trkpt lat="50.70222" lon="3.11128">
        <ele>29</ele>
        <time>2010-01-01T00:34:43Z</time>
      </trkpt>
      <trkpt lat="50.70254" lon="3.1116">
        <ele>29.7</ele>
        <time>2010-01-01T00:34:58Z</time>
      </trkpt>
      <trkpt lat="50.7029" lon="3.11194">
        <ele>29.6</ele>
        <time>2010-01-01T00:35:15Z</time>
      </trkpt>
      <trkpt lat="50.7033" lon="3.11217">
        <ele>30.1</ele>
        <time>2010-01-01T00:35:32Z</time>
      </trkpt>
      <trkpt lat="50.70343" lon="3.11227">
        <ele>30.2</ele>
        <time>2010-01-01T00:35:38Z</time>
      </trkpt>
      <trkpt lat="50.70366" lon="3.11251">
        <ele>30.8</ele>
        <time>2010-01-01T00:35:49Z</time>
      </trkpt>
      <trkpt lat="50.70397" lon="3.11288">
        <ele>31.1</ele>
        <time>2010-01-01T00:36:04Z</time>
      </trkpt>
      <trkpt lat="50.70424" lon="3.11317">
        <ele>31.3</ele>
        <time>2010-01-01T00:36:17Z</time>
      </trkpt>
      <trkpt lat="50.70444" lon="3.11336">
        <ele>31.1</ele>
        <time>2010-01-01T00:36:27Z</time>
      </trkpt>
      <trkpt lat="50.70464" lon="3.11351">
        <ele>31.2</ele>
        <time>2010-01-01T00:36:35Z</time>
      </trkpt>
      <trkpt lat="50.70501" lon="3.11368">
        <ele>31.2</ele>
        <time>2010-01-01T00:36:51Z</time>
      </trkpt>
      <trkpt lat="50.70511" lon="3.11374">
        <ele>31.3</ele>
        <time>2010-01-01T00:36:55Z</time>
      </trkpt>
      <trkpt lat="50.70519" lon="3.11382">
        <ele>31.2</ele>
        <time>2010-01-01T00:36:59Z</time>
      </trkpt>
      <trkpt lat="50.70532" lon="3.11406">
        <ele>31.7</ele>
        <time>2010-01-01T00:37:07Z</time>
      </trkpt>
      <trkpt lat="50.70537" lon="3.11421">
        <ele>32.2</ele>
        <time>2010-01-01T00:37:11Z</time>
      </trkpt>
      <trkpt lat="50.70537" lon="3.11433">
        <ele>32.6</ele>
        <time>2010-01-01T00:37:14Z</time>
      </trkpt>
      <trkpt lat="50.70537" lon="3.11443">
        <ele>32.9</ele>
        <time>2010-01-01T00:37:17Z</time>
      </trkpt>
      <trkpt lat="50.70581" lon="3.11433">
        <ele>32.6</ele>
        <time>2010-01-01T00:37:35Z</time>
      </trkpt>
      <trkpt lat="50.70596" lon="3.11426">
        <ele>32.6</ele>
        <time>2010-01-01T00:37:41Z</time>
      </trkpt>
      <trkpt lat="50.70609" lon="3.11412">
        <ele>32.8</ele>
        <time>2010-01-01T00:37:47Z</time>
      </trkpt>
      <trkpt lat="50.70623" lon="3.11388">
        <ele>32.4</ele>
        <time>2010-01-01T00:37:55Z</time>
      </trkpt>
      <trkpt lat="50.7065" lon="3.11339">
        <ele>32.5</ele>
        <time>2010-01-01T00:38:12Z</time>
      </trkpt>
      <trkpt lat="50.70671" lon="3.11281">
        <ele>32</ele>
        <time>2010-01-01T00:38:29Z</time>
      </trkpt>
      <trkpt lat="50.70702" lon="3.11212">
        <ele>32.7</ele>
        <time>2010-01-01T00:38:50Z</time>
      </trkpt>
      <trkpt lat="50.70711" lon="3.11194">
        <ele>32.6</ele>
        <time>2010-01-01T00:38:56Z</time>
      </trkpt>
      <trkpt lat="50.70742" lon="3.11143">
        <ele>33</ele>
        <time>2010-01-01T00:39:14Z</time>
      </trkpt>
      <trkpt lat="50.70776" lon="3.1109">
        <ele>34</ele>
        <time>2010-01-01T00:39:33Z</time>
      </trkpt>
      <trkpt lat="50.708" lon="3.11061">
        <ele>34</ele>
        <time>2010-01-01T00:39:45Z</time>
      </trkpt>
      <trkpt lat="50.70819" lon="3.11046">
        <ele>34.7</ele>
        <time>2010-01-01T00:39:54Z</time>
      </trkpt>
      <trkpt lat="50.70852" lon="3.11029">
        <ele>35</ele>
        <time>2010-01-01T00:40:08Z</time>
      </trkpt>
      <trkpt lat="50.7094" lon="3.10992">
        <ele>36</ele>
        <time>2010-01-01T00:40:44Z</time>
      </trkpt>
      <trkpt lat="50.70995" lon="3.10967">
        <ele>36</ele>
        <time>2010-01-01T00:41:07Z</time>
      </trkpt>
      <trkpt lat="50.71027" lon="3.10946">
        <ele>36.9</ele>
        <time>2010-01-01T00:41:21Z</time>
      </trkpt>
      <trkpt lat="50.71091" lon="3.10902">
        <ele>37.3</ele>
        <time>2010-01-01T00:41:49Z</time>
      </trkpt>
      <trkpt lat="50.71057" lon="3.10776">
        <ele>36.9</ele>
        <time>2010-01-01T00:42:24Z</time>
      </trkpt>
      <trkpt lat="50.71053" lon="3.10748">
        <ele>36</ele>
        <time>2010-01-01T00:42:31Z</time>
      </trkpt>
      <trkpt lat="50.71054" lon="3.10743">
        <ele>36</ele>
        <time>2010-01-01T00:42:32Z</time>
      </trkpt>
      <trkpt lat="50.71055" lon="3.10731">
        <ele>36</ele>
        <time>2010-01-01T00:42:35Z</time>
      </trkpt>
      <trkpt lat="50.71057" lon="3.1072">
        <ele>36</ele>
        <time>2010-01-01T00:42:38Z</time>
      </trkpt>
      <trkpt lat="50.71076" lon="3.10731">
        <ele>36</ele>
        <time>2010-01-01T00:42:46Z</time>
      </trkpt>
      <trkpt lat="50.71109" lon="3.10749">
        <ele>36.9</ele>
        <time>2010-01-01T00:43:00Z</time>
      </trkpt>
      <trkpt lat="50.71143" lon="3.10763">
        <ele>37</ele>
        <time>2010-01-01T00:43:14Z</time>
      </trkpt>
      <trkpt lat="50.71163" lon="3.10771">
        <ele>37</ele>
        <time>2010-01-01T00:43:23Z</time>
      </trkpt>
      <trkpt lat="50.71167" lon="3.1077">
        <ele>37</ele>
        <time>2010-01-01T00:43:24Z</time>
      </trkpt>
      <trkpt lat="50.71173" lon="3.10773">
        <ele>37.2</ele>
        <time>2010-01-01T00:43:27Z</time>
      </trkpt>
      <trkpt lat="50.71233" lon="3.10799">
        <ele>38</ele>
        <time>2010-01-01T00:43:52Z</time>
      </trkpt>
      <trkpt lat="50.71248" lon="3.10806">
        <ele>38</ele>
        <time>2010-01-01T00:43:58Z</time>
      </trkpt>
      <trkpt lat="50.71278" lon="3.1082">
        <ele>39.5</ele>
        <time>2010-01-01T00:44:10Z</time>
      </trkpt>
      <trkpt lat="50.71286" lon="3.10821">
        <ele>39.7</ele>
        <time>2010-01-01T00:44:14Z</time>
      </trkpt>
      <trkpt lat="50.71325" lon="3.10835">
        <ele>40.8</ele>
        <time>2010-01-01T00:44:30Z</time>
      </trkpt>
      <trkpt lat="50.71352" lon="3.1084">
        <ele>41.9</ele>
        <time>2010-01-01T00:44:40Z</time>
      </trkpt>
      <trkpt lat="50.71388" lon="3.10845">
        <ele>43.9</ele>
        <time>2010-01-01T00:44:55Z</time>
      </trkpt>
      <trkpt lat="50.71456" lon="3.10839">
        <ele>46.4</ele>
        <time>2010-01-01T00:45:22Z</time>
      </trkpt>
      <trkpt lat="50.7156" lon="3.10832">
        <ele>50</ele>
        <time>2010-01-01T00:46:04Z</time>
      </trkpt>
      <trkpt lat="50.71596" lon="3.10834">
        <ele>50.5</ele>
        <time>2010-01-01T00:46:18Z</time>
      </trkpt>
      <trkpt lat="50.71663" lon="3.10843">
        <ele>52</ele>
        <time>2010-01-01T00:46:45Z</time>
      </trkpt>
      <trkpt lat="50.71703" lon="3.10851">
        <ele>53</ele>
        <time>2010-01-01T00:47:01Z</time>
      </trkpt>
      <trkpt lat="50.71692" lon="3.10848">
        <ele>52.9</ele>
        <time>2010-01-01T00:47:06Z</time>
      </trkpt>
      <trkpt lat="50.71698" lon="3.10811">
        <ele>53</ele>
        <time>2010-01-01T00:47:15Z</time>
      </trkpt>
      <trkpt lat="50.71717" lon="3.10691">
        <ele>54.2</ele>
        <time>2010-01-01T00:47:47Z</time>
      </trkpt>
      <trkpt lat="50.71727" lon="3.10634">
        <ele>53.8</ele>
        <time>2010-01-01T00:48:02Z</time>
      </trkpt>
      <trkpt lat="50.71728" lon="3.10592">
        <ele>53.8</ele>
        <time>2010-01-01T00:48:12Z</time>
      </trkpt>
      <trkpt lat="50.71724" lon="3.10565">
        <ele>52.6</ele>
        <time>2010-01-01T00:48:19Z</time>
      </trkpt>
      <trkpt lat="50.71716" lon="3.10527">
        <ele>50</ele>
        <time>2010-01-01T00:48:30Z</time>
      </trkpt>
      <trkpt lat="50.71706" lon="3.10488">
        <ele>47.9</ele>
        <time>2010-01-01T00:48:40Z</time>
      </trkpt>
      <trkpt lat="50.71697" lon="3.10439">
        <ele>45.5</ele>
        <time>2010-01-01T00:48:53Z</time>
      </trkpt>
      <trkpt lat="50.71697" lon="3.1043">
        <ele>44.9</ele>
        <time>2010-01-01T00:48:56Z</time>
      </trkpt>
      <trkpt lat="50.71698" lon="3.10426">
        <ele>44.6</ele>
        <time>2010-01-01T00:48:57Z</time>
      </trkpt>
      <trkpt lat="50.71735" lon="3.10376">
        <ele>43</ele>
        <time>2010-01-01T00:49:16Z</time>
      </trkpt>
      <trkpt lat="50.71772" lon="3.10329">
        <ele>42.6</ele>
        <time>2010-01-01T00:49:35Z</time>
      </trkpt>
      <trkpt lat="50.71799" lon="3.10301">
        <ele>41.8</ele>
        <time>2010-01-01T00:49:48Z</time>
      </trkpt>
      <trkpt lat="50.71818" lon="3.10284">
        <ele>41.6</ele>
        <time>2010-01-01T00:49:57Z</time>
      </trkpt>
      <trkpt lat="50.71841" lon="3.1027">
        <ele>41.8</ele>
        <time>2010-01-01T00:50:07Z</time>
      </trkpt>
      <trkpt lat="50.71899" lon="3.10235">
        <ele>42.7</ele>
        <time>2010-01-01T00:50:32Z</time>
      </trkpt>
      <trkpt lat="50.71906" lon="3.10229">
        <ele>42.7</ele>
        <time>2010-01-01T00:50:35Z</time>
      </trkpt>
      <trkpt lat="50.71852" lon="3.10094">
        <ele>40.7</ele>
        <time>2010-01-01T00:51:15Z</time>
      </trkpt>
      <trkpt lat="50.71839" lon="3.10069">
        <ele>40.2</ele>
        <time>2010-01-01T00:51:23Z</time>
      </trkpt>
      <trkpt lat="50.7181" lon="3.10033">
        <ele>39.2</ele>
        <time>2010-01-01T00:51:38Z</time>
      </trkpt>
      <trkpt lat="50.71796" lon="3.10019">
        <ele>38.7</ele>
        <time>2010-01-01T00:51:45Z</time>
      </trkpt>
      <trkpt lat="50.7178" lon="3.1001">
        <ele>38.1</ele>
        <time>2010-01-01T00:51:52Z</time>
      </trkpt>
      <trkpt lat="50.71762" lon="3.10003">
        <ele>37.4</ele>
        <time>2010-01-01T00:51:59Z</time>
      </trkpt>
      <trkpt lat="50.71715" lon="3.09989">
        <ele>35.7</ele>
        <time>2010-01-01T00:52:18Z</time>
      </trkpt>
      <trkpt lat="50.71707" lon="3.09983">
        <ele>35.5</ele>
        <time>2010-01-01T00:52:22Z</time>
      </trkpt>
      <trkpt lat="50.71702" lon="3.09974">
        <ele>35.3</ele>
        <time>2010-01-01T00:52:25Z</time>
      </trkpt>
      <trkpt lat="50.71698" lon="3.09957">
        <ele>35.1</ele>
        <time>2010-01-01T00:52:29Z</time>
      </trkpt>
      <trkpt lat="50.71696" lon="3.09928">
        <ele>35.1</ele>
        <time>2010-01-01T00:52:37Z</time>
      </trkpt>
      <trkpt lat="50.71695" lon="3.09877">
        <ele>35</ele>
        <time>2010-01-01T00:52:50Z</time>
      </trkpt>
      <trkpt lat="50.71694" lon="3.09776">
        <ele>35</ele>
        <time>2010-01-01T00:53:15Z</time>
      </trkpt>
      <trkpt lat="50.71684" lon="3.09659">
        <ele>34.6</ele>
        <time>2010-01-01T00:53:45Z</time>
      </trkpt>
      <trkpt lat="50.71672" lon="3.09622">
        <ele>34.2</ele>
        <time>2010-01-01T00:53:56Z</time>
      </trkpt>
      <trkpt lat="50.71642" lon="3.09551">
        <ele>33.1</ele>
        <time>2010-01-01T00:54:17Z</time>
      </trkpt>
      <trkpt lat="50.7164" lon="3.09546">
        <ele>33</ele>
        <time>2010-01-01T00:54:19Z</time>
      </trkpt>
      <trkpt lat="50.71644" lon="3.09542">
        <ele>33.2</ele>
        <time>2010-01-01T00:54:21Z</time>
      </trkpt>
      <trkpt lat="50.71681" lon="3.0949">
        <ele>33.8</ele>
        <time>2010-01-01T00:54:41Z</time>
      </trkpt>
      <trkpt lat="50.71699" lon="3.09457">
        <ele>34.2</ele>
        <time>2010-01-01T00:54:52Z</time>
      </trkpt>
      <trkpt lat="50.71744" lon="3.09377">
        <ele>35</ele>
        <time>2010-01-01T00:55:19Z</time>
      </trkpt>
      <trkpt lat="50.71779" lon="3.09322">
        <ele>35.6</ele>
        <time>2010-01-01T00:55:38Z</time>
      </trkpt>
      <trkpt lat="50.71817" lon="3.09282">
        <ele>36</ele>
        <time>2010-01-01T00:55:57Z</time>
      </trkpt>
      <trkpt lat="50.7184" lon="3.09262">
        <ele>36</ele>
        <time>2010-01-01T00:56:07Z</time>
      </trkpt>
      <trkpt lat="50.71864" lon="3.09248">
        <ele>36</ele>
        <time>2010-01-01T00:56:18Z</time>
      </trkpt>
      <trkpt lat="50.71887" lon="3.09235">
        <ele>36</ele>
        <time>2010-01-01T00:56:27Z</time>
      </trkpt>
      <trkpt lat="50.7193" lon="3.09183">
        <ele>35.6</ele>
        <time>2010-01-01T00:56:49Z</time>
      </trkpt>
      <trkpt lat="50.71961" lon="3.09148">
        <ele>35</ele>
        <time>2010-01-01T00:57:04Z</time>
      </trkpt>
      <trkpt lat="50.71966" lon="3.09145">
        <ele>35</ele>
        <time>2010-01-01T00:57:06Z</time>
      </trkpt>
      <trkpt lat="50.71976" lon="3.09144">
        <ele>35</ele>
        <time>2010-01-01T00:57:10Z</time>
      </trkpt>
      <trkpt lat="50.71983" lon="3.09146">
        <ele>35.1</ele>
        <time>2010-01-01T00:57:13Z</time>
      </trkpt>
      <trkpt lat="50.71988" lon="3.09161">
        <ele>35.5</ele>
        <time>2010-01-01T00:57:18Z</time>
      </trkpt>
      <trkpt lat="50.71992" lon="3.09191">
        <ele>36</ele>
        <time>2010-01-01T00:57:25Z</time>
      </trkpt>
      <trkpt lat="50.71989" lon="3.09282">
        <ele>38.1</ele>
        <time>2010-01-01T00:57:48Z</time>
      </trkpt>
      <trkpt lat="50.71994" lon="3.09342">
        <ele>39.3</ele>
        <time>2010-01-01T00:58:04Z</time>
      </trkpt>
      <trkpt lat="50.71997" lon="3.09369">
        <ele>40</ele>
        <time>2010-01-01T00:58:11Z</time>
      </trkpt>
      <trkpt lat="50.72008" lon="3.09412">
        <ele>40</ele>
        <time>2010-01-01T00:58:22Z</time>
      </trkpt>
      <trkpt lat="50.72012" lon="3.09426">
        <ele>40</ele>
        <time>2010-01-01T00:58:26Z</time>
      </trkpt>
      <trkpt lat="50.72038" lon="3.09474">
        <ele>40</ele>
        <time>2010-01-01T00:58:42Z</time>
      </trkpt>
      <trkpt lat="50.7205" lon="3.09493">
        <ele>40</ele>
        <time>2010-01-01T00:58:49Z</time>
      </trkpt>
      <trkpt lat="50.72056" lon="3.09497">
        <ele>40</ele>
        <time>2010-01-01T00:58:52Z</time>
      </trkpt>
      <trkpt lat="50.72099" lon="3.09514">
        <ele>39</ele>
        <time>2010-01-01T00:59:09Z</time>
      </trkpt>
      <trkpt lat="50.72107" lon="3.09515">
        <ele>39</ele>
        <time>2010-01-01T00:59:13Z</time>
      </trkpt>
      <trkpt lat="50.72136" lon="3.09513">
        <ele>38.1</ele>
        <time>2010-01-01T00:59:24Z</time>
      </trkpt>
      <trkpt lat="50.72167" lon="3.09494">
        <ele>37</ele>
        <time>2010-01-01T00:59:38Z</time>
      </trkpt>
      <trkpt lat="50.72199" lon="3.09477">
        <ele>36.8</ele>
        <time>2010-01-01T00:59:51Z</time>
      </trkpt>
      <trkpt lat="50.72232" lon="3.09455">
        <ele>35.9</ele>
        <time>2010-01-01T01:00:05Z</time>
      </trkpt>
      <trkpt lat="50.72254" lon="3.09445">
        <ele>35.8</ele>
        <time>2010-01-01T01:00:15Z</time>
      </trkpt>
      <trkpt lat="50.72288" lon="3.09433">
        <ele>34.8</ele>
        <time>2010-01-01T01:00:29Z</time>
      </trkpt>
      <trkpt lat="50.72332" lon="3.09398">
        <ele>34</ele>
        <time>2010-01-01T01:00:48Z</time>
      </trkpt>
      <trkpt lat="50.72337" lon="3.09399">
        <ele>33.9</ele>
        <time>2010-01-01T01:00:50Z</time>
      </trkpt>
      <trkpt lat="50.7236" lon="3.09383">
        <ele>33</ele>
        <time>2010-01-01T01:01:00Z</time>
      </trkpt>
      <trkpt lat="50.72364" lon="3.09383">
        <ele>32.9</ele>
        <time>2010-01-01T01:01:02Z</time>
      </trkpt>
      <trkpt lat="50.72366" lon="3.09386">
        <ele>32.8</ele>
        <time>2010-01-01T01:01:03Z</time>
      </trkpt>
      <trkpt lat="50.72377" lon="3.09409">
        <ele>32.4</ele>
        <time>2010-01-01T01:01:10Z</time>
      </trkpt>
      <trkpt lat="50.72393" lon="3.09434">
        <ele>31.9</ele>
        <time>2010-01-01T01:01:19Z</time>
      </trkpt>
      <trkpt lat="50.72421" lon="3.09478">
        <ele>30.8</ele>
        <time>2010-01-01T01:01:35Z</time>
      </trkpt>
      <trkpt lat="50.72441" lon="3.09515">
        <ele>30.1</ele>
        <time>2010-01-01T01:01:48Z</time>
      </trkpt>
      <trkpt lat="50.72458" lon="3.09546">
        <ele>29.7</ele>
        <time>2010-01-01T01:01:58Z</time>
      </trkpt>
      <trkpt lat="50.72468" lon="3.09558">
        <ele>29.9</ele>
        <time>2010-01-01T01:02:03Z</time>
      </trkpt>
      <trkpt lat="50.72489" lon="3.09582">
        <ele>29.4</ele>
        <time>2010-01-01T01:02:13Z</time>
      </trkpt>
      <trkpt lat="50.725" lon="3.09594">
        <ele>29</ele>
        <time>2010-01-01T01:02:19Z</time>
      </trkpt>
      <trkpt lat="50.72501" lon="3.09608">
        <ele>29</ele>
        <time>2010-01-01T01:02:22Z</time>
      </trkpt>
      <trkpt lat="50.7248" lon="3.0968">
        <ele>31.2</ele>
        <time>2010-01-01T01:02:42Z</time>
      </trkpt>
      <trkpt lat="50.72478" lon="3.09697">
        <ele>31.8</ele>
        <time>2010-01-01T01:02:47Z</time>
      </trkpt>
      <trkpt lat="50.72478" lon="3.09712">
        <ele>31.8</ele>
        <time>2010-01-01T01:02:51Z</time>
      </trkpt>
      <trkpt lat="50.72481" lon="3.09723">
        <ele>31.7</ele>
        <time>2010-01-01T01:02:54Z</time>
      </trkpt>
      <trkpt lat="50.7253" lon="3.09847">
        <ele>34.1</ele>
        <time>2010-01-01T01:03:31Z</time>
      </trkpt>
      <trkpt lat="50.72565" lon="3.0995">
        <ele>38</ele>
        <time>2010-01-01T01:04:00Z</time>
      </trkpt>
      <trkpt lat="50.72567" lon="3.09949">
        <ele>38.2</ele>
        <time>2010-01-01T01:04:01Z</time>
      </trkpt>
      <trkpt lat="50.72572" lon="3.09947">
        <ele>38.8</ele>
        <time>2010-01-01T01:04:03Z</time>
      </trkpt>
      <trkpt lat="50.72592" lon="3.09928">
        <ele>40.3</ele>
        <time>2010-01-01T01:04:12Z</time>
      </trkpt>
      <trkpt lat="50.72626" lon="3.09891">
        <ele>41.5</ele>
        <time>2010-01-01T01:04:29Z</time>
      </trkpt>
      <trkpt lat="50.7268" lon="3.09831">
        <ele>41.4</ele>
        <time>2010-01-01T01:04:55Z</time>
      </trkpt>
      <trkpt lat="50.72746" lon="3.09744">
        <ele>38.7</ele>
        <time>2010-01-01T01:05:30Z</time>
      </trkpt>
      <trkpt lat="50.72781" lon="3.09683">
        <ele>37.6</ele>
        <time>2010-01-01T01:05:51Z</time>
      </trkpt>
      <trkpt lat="50.72805" lon="3.0963">
        <ele>38.6</ele>
        <time>2010-01-01T01:06:07Z</time>
      </trkpt>
      <trkpt lat="50.72828" lon="3.09572">
        <ele>38.9</ele>
        <time>2010-01-01T01:06:25Z</time>
      </trkpt>
      <trkpt lat="50.72831" lon="3.09564">
        <ele>39</ele>
        <time>2010-01-01T01:06:27Z</time>
      </trkpt>
      <trkpt lat="50.7284" lon="3.09578">
        <ele>39.2</ele>
        <time>2010-01-01T01:06:32Z</time>
      </trkpt>
      <trkpt lat="50.7285" lon="3.09603">
        <ele>39.2</ele>
        <time>2010-01-01T01:06:39Z</time>
      </trkpt>
      <trkpt lat="50.72876" lon="3.09684">
        <ele>39</ele>
        <time>2010-01-01T01:07:02Z</time>
      </trkpt>
      <trkpt lat="50.72906" lon="3.09809">
        <ele>40.4</ele>
        <time>2010-01-01T01:07:36Z</time>
      </trkpt>
      <trkpt lat="50.72913" lon="3.09844">
        <ele>39.8</ele>
        <time>2010-01-01T01:07:46Z</time>
      </trkpt>
      <trkpt lat="50.72918" lon="3.09854">
        <ele>39.2</ele>
        <time>2010-01-01T01:07:49Z</time>
      </trkpt>
      <trkpt lat="50.72932" lon="3.09873">
        <ele>39</ele>
        <time>2010-01-01T01:07:56Z</time>
      </trkpt>
      <trkpt lat="50.72952" lon="3.09897">
        <ele>39.2</ele>
        <time>2010-01-01T01:08:06Z</time>
      </trkpt>
      <trkpt lat="50.7296" lon="3.09909">
        <ele>39.3</ele>
        <time>2010-01-01T01:08:11Z</time>
      </trkpt>
      <trkpt lat="50.72989" lon="3.09969">
        <ele>39.4</ele>
        <time>2010-01-01T01:08:30Z</time>
      </trkpt>
      <trkpt lat="50.73008" lon="3.10023">
        <ele>39</ele>
        <time>2010-01-01T01:08:46Z</time>
      </trkpt>
      <trkpt lat="50.73018" lon="3.10046">
        <ele>39.2</ele>
        <time>2010-01-01T01:08:53Z</time>
      </trkpt>
      <trkpt lat="50.73026" lon="3.1006">
        <ele>39.1</ele>
        <time>2010-01-01T01:08:57Z</time>
      </trkpt>
      <trkpt lat="50.73052" lon="3.10086">
        <ele>38.9</ele>
        <time>2010-01-01T01:09:10Z</time>
      </trkpt>
      <trkpt lat="50.73071" lon="3.1011">
        <ele>38</ele>
        <time>2010-01-01T01:09:19Z</time>
      </trkpt>
      <trkpt lat="50.73122" lon="3.10179">
        <ele>38.3</ele>
        <time>2010-01-01T01:09:46Z</time>
      </trkpt>
      <trkpt lat="50.73145" lon="3.10208">
        <ele>38</ele>
        <time>2010-01-01T01:09:58Z</time>
      </trkpt>
      <trkpt lat="50.73164" lon="3.10221">
        <ele>38</ele>
        <time>2010-01-01T01:10:06Z</time>
      </trkpt>
      <trkpt lat="50.73182" lon="3.1023">
        <ele>38</ele>
        <time>2010-01-01T01:10:14Z</time>
      </trkpt>
      <trkpt lat="50.73213" lon="3.10239">
        <ele>37.3</ele>
        <time>2010-01-01T01:10:27Z</time>
      </trkpt>
      <trkpt lat="50.7323" lon="3.10238">
        <ele>36.9</ele>
        <time>2010-01-01T01:10:33Z</time>
      </trkpt>
      <trkpt lat="50.73293" lon="3.10207">
        <ele>35.5</ele>
        <time>2010-01-01T01:11:00Z</time>
      </trkpt>
      <trkpt lat="50.7331" lon="3.10193">
        <ele>35</ele>
        <time>2010-01-01T01:11:07Z</time>
      </trkpt>
      <trkpt lat="50.73329" lon="3.10172">
        <ele>35</ele>
        <time>2010-01-01T01:11:17Z</time>
      </trkpt>
      <trkpt lat="50.73343" lon="3.10152">
        <ele>35</ele>
        <time>2010-01-01T01:11:24Z</time>
      </trkpt>
      <trkpt lat="50.73365" lon="3.10114">
        <ele>35</ele>
        <time>2010-01-01T01:11:37Z</time>
      </trkpt>
      <trkpt lat="50.73411" lon="3.10002">
        <ele>35</ele>
        <time>2010-01-01T01:12:11Z</time>
      </trkpt>
      <trkpt lat="50.73432" lon="3.09946">
        <ele>35</ele>
        <time>2010-01-01T01:12:28Z</time>
      </trkpt>
      <trkpt lat="50.73471" lon="3.09888">
        <ele>36</ele>
        <time>2010-01-01T01:12:49Z</time>
      </trkpt>
      <trkpt lat="50.73507" lon="3.09837">
        <ele>36</ele>
        <time>2010-01-01T01:13:08Z</time>
      </trkpt>
      <trkpt lat="50.73513" lon="3.09832">
        <ele>36</ele>
        <time>2010-01-01T01:13:11Z</time>
      </trkpt>
      <trkpt lat="50.73521" lon="3.0983">
        <ele>36.1</ele>
        <time>2010-01-01T01:13:14Z</time>
      </trkpt>
      <trkpt lat="50.73536" lon="3.09844">
        <ele>36.2</ele>
        <time>2010-01-01T01:13:21Z</time>
      </trkpt>
      <trkpt lat="50.73561" lon="3.09862">
        <ele>36</ele>
        <time>2010-01-01T01:13:32Z</time>
      </trkpt>
      <trkpt lat="50.73564" lon="3.09864">
        <ele>36</ele>
        <time>2010-01-01T01:13:34Z</time>
      </trkpt>
      <trkpt lat="50.73568" lon="3.09859">
        <ele>36</ele>
        <time>2010-01-01T01:13:36Z</time>
      </trkpt>
      <trkpt lat="50.73564" lon="3.09864">
        <ele>36</ele>
        <time>2010-01-01T01:13:38Z</time>
      </trkpt>
      <trkpt lat="50.73575" lon="3.09877">
        <ele>36</ele>
        <time>2010-01-01T01:13:43Z</time>
      </trkpt>
      <trkpt lat="50.73614" lon="3.09929">
        <ele>35.1</ele>
        <time>2010-01-01T01:14:04Z</time>
      </trkpt>
      <trkpt lat="50.7363" lon="3.09947">
        <ele>35</ele>
        <time>2010-01-01T01:14:12Z</time>
      </trkpt>
      <trkpt lat="50.73637" lon="3.09951">
        <ele>35</ele>
        <time>2010-01-01T01:14:15Z</time>
      </trkpt>
      <trkpt lat="50.73644" lon="3.09951">
        <ele>35</ele>
        <time>2010-01-01T01:14:17Z</time>
      </trkpt>
      <trkpt lat="50.73649" lon="3.09948">
        <ele>35</ele>
        <time>2010-01-01T01:14:19Z</time>
      </trkpt>
      <trkpt lat="50.73657" lon="3.09933">
        <ele>35.1</ele>
        <time>2010-01-01T01:14:24Z</time>
      </trkpt>
      <trkpt lat="50.73665" lon="3.09916">
        <ele>35.1</ele>
        <time>2010-01-01T01:14:30Z</time>
      </trkpt>
      <trkpt lat="50.73672" lon="3.09908">
        <ele>35.3</ele>
        <time>2010-01-01T01:14:33Z</time>
      </trkpt>
      <trkpt lat="50.73683" lon="3.09901">
        <ele>35.2</ele>
        <time>2010-01-01T01:14:38Z</time>
      </trkpt>
      <trkpt lat="50.73737" lon="3.10005">
        <ele>34</ele>
        <time>2010-01-01T01:15:12Z</time>
      </trkpt>
      <trkpt lat="50.73794" lon="3.10114">
        <ele>33.4</ele>
        <time>2010-01-01T01:15:48Z</time>
      </trkpt>
      <trkpt lat="50.73828" lon="3.10077">
        <ele>32.8</ele>
        <time>2010-01-01T01:16:04Z</time>
      </trkpt>
      <trkpt lat="50.73836" lon="3.10059">
        <ele>32.1</ele>
        <time>2010-01-01T01:16:10Z</time>
      </trkpt>
      <trkpt lat="50.73843" lon="3.10033">
        <ele>32.5</ele>
        <time>2010-01-01T01:16:17Z</time>
      </trkpt>
      <trkpt lat="50.73851" lon="3.10011">
        <ele>32.4</ele>
        <time>2010-01-01T01:16:24Z</time>
      </trkpt>
      <trkpt lat="50.73866" lon="3.09992">
        <ele>32.2</ele>
        <time>2010-01-01T01:16:31Z</time>
      </trkpt>
      <trkpt lat="50.73897" lon="3.09969">
        <ele>32.1</ele>
        <time>2010-01-01T01:16:45Z</time>
      </trkpt>
      <trkpt lat="50.73926" lon="3.09945">
        <ele>32</ele>
        <time>2010-01-01T01:16:58Z</time>
      </trkpt>
      <trkpt lat="50.73947" lon="3.09922">
        <ele>32</ele>
        <time>2010-01-01T01:17:08Z</time>
      </trkpt>
      <trkpt lat="50.73953" lon="3.09914">
        <ele>32</ele>
        <time>2010-01-01T01:17:11Z</time>
      </trkpt>
      <trkpt lat="50.73956" lon="3.09913">
        <ele>32</ele>
        <time>2010-01-01T01:17:13Z</time>
      </trkpt>
      <trkpt lat="50.7396" lon="3.09915">
        <ele>32</ele>
        <time>2010-01-01T01:17:14Z</time>
      </trkpt>
      <trkpt lat="50.73979" lon="3.0995">
        <ele>31</ele>
        <time>2010-01-01T01:17:26Z</time>
      </trkpt>
      <trkpt lat="50.7399" lon="3.09971">
        <ele>31</ele>
        <time>2010-01-01T01:17:33Z</time>
      </trkpt>
      <trkpt lat="50.74004" lon="3.09947">
        <ele>30.9</ele>
        <time>2010-01-01T01:17:41Z</time>
      </trkpt>
      <trkpt lat="50.74027" lon="3.09899">
        <ele>31</ele>
        <time>2010-01-01T01:17:56Z</time>
      </trkpt>
      <trkpt lat="50.74073" lon="3.09789">
        <ele>31.2</ele>
        <time>2010-01-01T01:18:30Z</time>
      </trkpt>
      <trkpt lat="50.7409" lon="3.09757">
        <ele>31</ele>
        <time>2010-01-01T01:18:40Z</time>
      </trkpt>
      <trkpt lat="50.7419" lon="3.09575">
        <ele>31</ele>
        <time>2010-01-01T01:19:42Z</time>
      </trkpt>
      <trkpt lat="50.74217" lon="3.09526">
        <ele>31.8</ele>
        <time>2010-01-01T01:19:58Z</time>
      </trkpt>
      <trkpt lat="50.74248" lon="3.09456">
        <ele>32.6</ele>
        <time>2010-01-01T01:20:20Z</time>
      </trkpt>
      <trkpt lat="50.74349" lon="3.09229">
        <ele>34.9</ele>
        <time>2010-01-01T01:21:30Z</time>
      </trkpt>
      <trkpt lat="50.74365" lon="3.09192">
        <ele>35</ele>
        <time>2010-01-01T01:21:41Z</time>
      </trkpt>
      <trkpt lat="50.74388" lon="3.09138">
        <ele>35</ele>
        <time>2010-01-01T01:21:58Z</time>
      </trkpt>
      <trkpt lat="50.74419" lon="3.09078">
        <ele>34</ele>
        <time>2010-01-01T01:22:17Z</time>
      </trkpt>
      <trkpt lat="50.7445" lon="3.09028">
        <ele>34</ele>
        <time>2010-01-01T01:22:35Z</time>
      </trkpt>
      <trkpt lat="50.74481" lon="3.08986">
        <ele>34.3</ele>
        <time>2010-01-01T01:22:51Z</time>
      </trkpt>
      <trkpt lat="50.74557" lon="3.08901">
        <ele>33.5</ele>
        <time>2010-01-01T01:23:29Z</time>
      </trkpt>
      <trkpt lat="50.74597" lon="3.08839">
        <ele>33.9</ele>
        <time>2010-01-01T01:23:51Z</time>
      </trkpt>
      <trkpt lat="50.74618" lon="3.08808">
        <ele>34</ele>
        <time>2010-01-01T01:24:03Z</time>
      </trkpt>
      <trkpt lat="50.7464" lon="3.08769">
        <ele>34</ele>
        <time>2010-01-01T01:24:16Z</time>
      </trkpt>
      <trkpt lat="50.74687" lon="3.08667">
        <ele>35</ele>
        <time>2010-01-01T01:24:48Z</time>
      </trkpt>
      <trkpt lat="50.74691" lon="3.08653">
        <ele>35</ele>
        <time>2010-01-01T01:24:52Z</time>
      </trkpt>
      <trkpt lat="50.74703" lon="3.08662">
        <ele>35.1</ele>
        <time>2010-01-01T01:24:57Z</time>
      </trkpt>
      <trkpt lat="50.74718" lon="3.08669">
        <ele>35</ele>
        <time>2010-01-01T01:25:03Z</time>
      </trkpt>
      <trkpt lat="50.74729" lon="3.0867">
        <ele>35</ele>
        <time>2010-01-01T01:25:08Z</time>
      </trkpt>
      <trkpt lat="50.74747" lon="3.08666">
        <ele>35</ele>
        <time>2010-01-01T01:25:15Z</time>
      </trkpt>
      <trkpt lat="50.74839" lon="3.08634">
        <ele>36</ele>
        <time>2010-01-01T01:25:53Z</time>
      </trkpt>
      <trkpt lat="50.74898" lon="3.08613">
        <ele>36</ele>
        <time>2010-01-01T01:26:17Z</time>
      </trkpt>
      <trkpt lat="50.74954" lon="3.0859">
        <ele>36.7</ele>
        <time>2010-01-01T01:26:40Z</time>
      </trkpt>
      <trkpt lat="50.75012" lon="3.08558">
        <ele>37</ele>
        <time>2010-01-01T01:27:05Z</time>
      </trkpt>
      <trkpt lat="50.75057" lon="3.08531">
        <ele>37</ele>
        <time>2010-01-01T01:27:24Z</time>
      </trkpt>
      <trkpt lat="50.75172" lon="3.08465">
        <ele>38.9</ele>
        <time>2010-01-01T01:28:13Z</time>
      </trkpt>
      <trkpt lat="50.75212" lon="3.08447">
        <ele>39</ele>
        <time>2010-01-01T01:28:30Z</time>
      </trkpt>
      <trkpt lat="50.75239" lon="3.08442">
        <ele>39</ele>
        <time>2010-01-01T01:28:40Z</time>
      </trkpt>
      <trkpt lat="50.75276" lon="3.08443">
        <ele>38.1</ele>
        <time>2010-01-01T01:28:55Z</time>
      </trkpt>
      <trkpt lat="50.75306" lon="3.08451">
        <ele>38</ele>
        <time>2010-01-01T01:29:07Z</time>
      </trkpt>
      <trkpt lat="50.75347" lon="3.08474">
        <ele>37.5</ele>
        <time>2010-01-01T01:29:25Z</time>
      </trkpt>
      <trkpt lat="50.7537" lon="3.08493">
        <ele>37</ele>
        <time>2010-01-01T01:29:35Z</time>
      </trkpt>
      <trkpt lat="50.75392" lon="3.08514">
        <ele>36.4</ele>
        <time>2010-01-01T01:29:46Z</time>
      </trkpt>
      <trkpt lat="50.75387" lon="3.08484">
        <ele>37</ele>
        <time>2010-01-01T01:29:53Z</time>
      </trkpt>
      <trkpt lat="50.75341" lon="3.08367">
        <ele>38</ele>
        <time>2010-01-01T01:30:28Z</time>
      </trkpt>
      <trkpt lat="50.75329" lon="3.08334">
        <ele>38.2</ele>
        <time>2010-01-01T01:30:38Z</time>
      </trkpt>
      <trkpt lat="50.75312" lon="3.08275">
        <ele>38.8</ele>
        <time>2010-01-01T01:30:54Z</time>
      </trkpt>
      <trkpt lat="50.75287" lon="3.08156">
        <ele>39</ele>
        <time>2010-01-01T01:31:26Z</time>
      </trkpt>
      <trkpt lat="50.75275" lon="3.08118">
        <ele>39.8</ele>
        <time>2010-01-01T01:31:37Z</time>
      </trkpt>
      <trkpt lat="50.75252" lon="3.0806">
        <ele>40.8</ele>
        <time>2010-01-01T01:31:54Z</time>
      </trkpt>
      <trkpt lat="50.75241" lon="3.08017">
        <ele>41.6</ele>
        <time>2010-01-01T01:32:06Z</time>
      </trkpt>
      <trkpt lat="50.75213" lon="3.07879">
        <ele>44.3</ele>
        <time>2010-01-01T01:32:43Z</time>
      </trkpt>
      <trkpt lat="50.7519" lon="3.07802">
        <ele>46.3</ele>
        <time>2010-01-01T01:33:04Z</time>
      </trkpt>
      <trkpt lat="50.75188" lon="3.07791">
        <ele>46.6</ele>
        <time>2010-01-01T01:33:07Z</time>
      </trkpt>
      <trkpt lat="50.75179" lon="3.07785">
        <ele>46.9</ele>
        <time>2010-01-01T01:33:11Z</time>
      </trkpt>
      <trkpt lat="50.75174" lon="3.07749">
        <ele>47</ele>
        <time>2010-01-01T01:33:20Z</time>
      </trkpt>
      <trkpt lat="50.75169" lon="3.07717">
        <ele>46.8</ele>
        <time>2010-01-01T01:33:29Z</time>
      </trkpt>
      <trkpt lat="50.75168" lon="3.07692">
        <ele>46</ele>
        <time>2010-01-01T01:33:35Z</time>
      </trkpt>
      <trkpt lat="50.7519" lon="3.07604">
        <ele>43.3</ele>
        <time>2010-01-01T01:33:59Z</time>
      </trkpt>
      <trkpt lat="50.75198" lon="3.07591">
        <ele>42.6</ele>
        <time>2010-01-01T01:34:04Z</time>
      </trkpt>
      <trkpt lat="50.75204" lon="3.07587">
        <ele>42.6</ele>
        <time>2010-01-01T01:34:06Z</time>
      </trkpt>
      <trkpt lat="50.75222" lon="3.0758">
        <ele>42.8</ele>
        <time>2010-01-01T01:34:14Z</time>
      </trkpt>
      <trkpt lat="50.75289" lon="3.07555">
        <ele>42</ele>
        <time>2010-01-01T01:34:41Z</time>
      </trkpt>
      <trkpt lat="50.75382" lon="3.07518">
        <ele>40.6</ele>
        <time>2010-01-01T01:35:20Z</time>
      </trkpt>
      <trkpt lat="50.75471" lon="3.07476">
        <ele>40.2</ele>
        <time>2010-01-01T01:35:57Z</time>
      </trkpt>
      <trkpt lat="50.75524" lon="3.07429">
        <ele>38.5</ele>
        <time>2010-01-01T01:36:21Z</time>
      </trkpt>
      <trkpt lat="50.75547" lon="3.07413">
        <ele>37.9</ele>
        <time>2010-01-01T01:36:31Z</time>
      </trkpt>
      <trkpt lat="50.75566" lon="3.07402">
        <ele>37.8</ele>
        <time>2010-01-01T01:36:39Z</time>
      </trkpt>
      <trkpt lat="50.75602" lon="3.07381">
        <ele>37.9</ele>
        <time>2010-01-01T01:36:55Z</time>
      </trkpt>
      <trkpt lat="50.75605" lon="3.07379">
        <ele>37.9</ele>
        <time>2010-01-01T01:36:56Z</time>
      </trkpt>
      <trkpt lat="50.75611" lon="3.07359">
        <ele>37.9</ele>
        <time>2010-01-01T01:37:02Z</time>
      </trkpt>
      <trkpt lat="50.75628" lon="3.07326">
        <ele>37.3</ele>
        <time>2010-01-01T01:37:12Z</time>
      </trkpt>
      <trkpt lat="50.7565" lon="3.07291">
        <ele>36.9</ele>
        <time>2010-01-01T01:37:25Z</time>
      </trkpt>
      <trkpt lat="50.75686" lon="3.07241">
        <ele>35.7</ele>
        <time>2010-01-01T01:37:44Z</time>
      </trkpt>
      <trkpt lat="50.75727" lon="3.07187">
        <ele>35.1</ele>
        <time>2010-01-01T01:38:05Z</time>
      </trkpt>
      <trkpt lat="50.75753" lon="3.07157">
        <ele>34.7</ele>
        <time>2010-01-01T01:38:18Z</time>
      </trkpt>
      <trkpt lat="50.75782" lon="3.0713">
        <ele>34.1</ele>
        <time>2010-01-01T01:38:32Z</time>
      </trkpt>
      <trkpt lat="50.75809" lon="3.07106">
        <ele>34.1</ele>
        <time>2010-01-01T01:38:44Z</time>
      </trkpt>
      <trkpt lat="50.75881" lon="3.07045">
        <ele>34.2</ele>
        <time>2010-01-01T01:39:17Z</time>
      </trkpt>
      <trkpt lat="50.75931" lon="3.0699">
        <ele>34.8</ele>
        <time>2010-01-01T01:39:41Z</time>
      </trkpt>
      <trkpt lat="50.75928" lon="3.06981">
        <ele>34.6</ele>
        <time>2010-01-01T01:39:44Z</time>
      </trkpt>
      <trkpt lat="50.75931" lon="3.06979">
        <ele>34.6</ele>
        <time>2010-01-01T01:39:45Z</time>
      </trkpt>
      <trkpt lat="50.75936" lon="3.06974">
        <ele>34.7</ele>
        <time>2010-01-01T01:39:47Z</time>
      </trkpt>
      <trkpt lat="50.76022" lon="3.069">
        <ele>35</ele>
        <time>2010-01-01T01:40:27Z</time>
      </trkpt>
      <trkpt lat="50.76026" lon="3.06892">
        <ele>35</ele>
        <time>2010-01-01T01:40:29Z</time>
      </trkpt>
      <trkpt lat="50.76028" lon="3.06883">
        <ele>35</ele>
        <time>2010-01-01T01:40:32Z</time>
      </trkpt>
      <trkpt lat="50.76027" lon="3.06865">
        <ele>35</ele>
        <time>2010-01-01T01:40:36Z</time>
      </trkpt>
      <trkpt lat="50.76028" lon="3.06857">
        <ele>35</ele>
        <time>2010-01-01T01:40:38Z</time>
      </trkpt>
      <trkpt lat="50.76033" lon="3.06846">
        <ele>35</ele>
        <time>2010-01-01T01:40:42Z</time>
      </trkpt>
      <trkpt lat="50.76078" lon="3.06788">
        <ele>36.8</ele>
        <time>2010-01-01T01:41:05Z</time>
      </trkpt>
      <trkpt lat="50.76095" lon="3.06766">
        <ele>37.7</ele>
        <time>2010-01-01T01:41:14Z</time>
      </trkpt>
      <trkpt lat="50.76112" lon="3.06739">
        <ele>38.4</ele>
        <time>2010-01-01T01:41:23Z</time>
      </trkpt>
      <trkpt lat="50.76145" lon="3.06659">
        <ele>40.2</ele>
        <time>2010-01-01T01:41:48Z</time>
      </trkpt>
      <trkpt lat="50.76183" lon="3.06577">
        <ele>41</ele>
        <time>2010-01-01T01:42:13Z</time>
      </trkpt>
      <trkpt lat="50.76206" lon="3.06534">
        <ele>41.3</ele>
        <time>2010-01-01T01:42:28Z</time>
      </trkpt>
      <trkpt lat="50.76205" lon="3.06511">
        <ele>41.8</ele>
        <time>2010-01-01T01:42:33Z</time>
      </trkpt>
      <trkpt lat="50.76209" lon="3.06504">
        <ele>41.9</ele>
        <time>2010-01-01T01:42:36Z</time>
      </trkpt>
      <trkpt lat="50.76228" lon="3.06466">
        <ele>42.2</ele>
        <time>2010-01-01T01:42:48Z</time>
      </trkpt>
      <trkpt lat="50.76237" lon="3.06451">
        <ele>42.4</ele>
        <time>2010-01-01T01:42:53Z</time>
      </trkpt>
      <trkpt lat="50.76244" lon="3.06446">
        <ele>42.2</ele>
        <time>2010-01-01T01:42:56Z</time>
      </trkpt>
      <trkpt lat="50.76257" lon="3.0644">
        <ele>41.9</ele>
        <time>2010-01-01T01:43:02Z</time>
      </trkpt>
      <trkpt lat="50.7627" lon="3.06429">
        <ele>41.8</ele>
        <time>2010-01-01T01:43:08Z</time>
      </trkpt>
      <trkpt lat="50.76287" lon="3.06406">
        <ele>41.7</ele>
        <time>2010-01-01T01:43:17Z</time>
      </trkpt>
      <trkpt lat="50.76307" lon="3.06374">
        <ele>41.4</ele>
        <time>2010-01-01T01:43:28Z</time>
      </trkpt>
      <trkpt lat="50.76322" lon="3.06351">
        <ele>40.4</ele>
        <time>2010-01-01T01:43:36Z</time>
      </trkpt>
      <trkpt lat="50.76327" lon="3.06351">
        <ele>40</ele>
        <time>2010-01-01T01:43:38Z</time>
      </trkpt>
      <trkpt lat="50.76332" lon="3.06354">
        <ele>39.4</ele>
        <time>2010-01-01T01:43:41Z</time>
      </trkpt>
      <trkpt lat="50.76348" lon="3.06376">
        <ele>38.2</ele>
        <time>2010-01-01T01:43:49Z</time>
      </trkpt>
      <trkpt lat="50.76354" lon="3.06378">
        <ele>37.8</ele>
        <time>2010-01-01T01:43:51Z</time>
      </trkpt>
      <trkpt lat="50.76361" lon="3.06371">
        <ele>37.6</ele>
        <time>2010-01-01T01:43:55Z</time>
      </trkpt>
      <trkpt lat="50.76379" lon="3.06342">
        <ele>37.6</ele>
        <time>2010-01-01T01:44:05Z</time>
      </trkpt>
      <trkpt lat="50.7639" lon="3.06327">
        <ele>37.2</ele>
        <time>2010-01-01T01:44:11Z</time>
      </trkpt>
      <trkpt lat="50.76399" lon="3.06311">
        <ele>37.4</ele>
        <time>2010-01-01T01:44:16Z</time>
      </trkpt>
      <trkpt lat="50.76405" lon="3.06301">
        <ele>37.5</ele>
        <time>2010-01-01T01:44:20Z</time>
      </trkpt>
      <trkpt lat="50.76412" lon="3.06298">
        <ele>37.4</ele>
        <time>2010-01-01T01:44:23Z</time>
      </trkpt>
      <trkpt lat="50.76421" lon="3.06289">
        <ele>37.3</ele>
        <time>2010-01-01T01:44:27Z</time>
      </trkpt>
      <trkpt lat="50.76434" lon="3.06274">
        <ele>36.8</ele>
        <time>2010-01-01T01:44:33Z</time>
      </trkpt>
      <trkpt lat="50.7646" lon="3.06239">
        <ele>34.9</ele>
        <time>2010-01-01T01:44:47Z</time>
      </trkpt>
      <trkpt lat="50.76475" lon="3.06224">
        <ele>33.8</ele>
        <time>2010-01-01T01:44:54Z</time>
      </trkpt>
      <trkpt lat="50.76482" lon="3.06219">
        <ele>33.3</ele>
        <time>2010-01-01T01:44:57Z</time>
      </trkpt>
      <trkpt lat="50.76491" lon="3.06219">
        <ele>32.6</ele>
        <time>2010-01-01T01:45:01Z</time>
      </trkpt>
      <trkpt lat="50.765" lon="3.06227">
        <ele>32.2</ele>
        <time>2010-01-01T01:45:05Z</time>
      </trkpt>
      <trkpt lat="50.76512" lon="3.06238">
        <ele>31.7</ele>
        <time>2010-01-01T01:45:11Z</time>
      </trkpt>
      <trkpt lat="50.76514" lon="3.06237">
        <ele>31.5</ele>
        <time>2010-01-01T01:45:11Z</time>
      </trkpt>
      <trkpt lat="50.76527" lon="3.06229">
        <ele>30.3</ele>
        <time>2010-01-01T01:45:17Z</time>
      </trkpt>
      <trkpt lat="50.76567" lon="3.06191">
        <ele>27.1</ele>
        <time>2010-01-01T01:45:36Z</time>
      </trkpt>
      <trkpt lat="50.76594" lon="3.06173">
        <ele>25.1</ele>
        <time>2010-01-01T01:45:47Z</time>
      </trkpt>
      <trkpt lat="50.76656" lon="3.06149">
        <ele>23.2</ele>
        <time>2010-01-01T01:46:13Z</time>
      </trkpt>
      <trkpt lat="50.76691" lon="3.0614">
        <ele>23</ele>
        <time>2010-01-01T01:46:27Z</time>
      </trkpt>
      <trkpt lat="50.76718" lon="3.06128">
        <ele>23</ele>
        <time>2010-01-01T01:46:38Z</time>
      </trkpt>
      <trkpt lat="50.76726" lon="3.06127">
        <ele>23</ele>
        <time>2010-01-01T01:46:42Z</time>
      </trkpt>
      <trkpt lat="50.76734" lon="3.06132">
        <ele>23</ele>
        <time>2010-01-01T01:46:45Z</time>
      </trkpt>
      <trkpt lat="50.76765" lon="3.06182">
        <ele>22</ele>
        <time>2010-01-01T01:47:03Z</time>
      </trkpt>
      <trkpt lat="50.76773" lon="3.06189">
        <ele>22</ele>
        <time>2010-01-01T01:47:06Z</time>
      </trkpt>
      <trkpt lat="50.76782" lon="3.06191">
        <ele>22.2</ele>
        <time>2010-01-01T01:47:10Z</time>
      </trkpt>
      <trkpt lat="50.76821" lon="3.06183">
        <ele>23</ele>
        <time>2010-01-01T01:47:26Z</time>
      </trkpt>
      <trkpt lat="50.7686" lon="3.06173">
        <ele>23</ele>
        <time>2010-01-01T01:47:42Z</time>
      </trkpt>
      <trkpt lat="50.76885" lon="3.06308">
        <ele>22.8</ele>
        <time>2010-01-01T01:48:17Z</time>
      </trkpt>
      <trkpt lat="50.76886" lon="3.06312">
        <ele>22.7</ele>
        <time>2010-01-01T01:48:18Z</time>
      </trkpt>
      <trkpt lat="50.76889" lon="3.06311">
        <ele>22.8</ele>
        <time>2010-01-01T01:48:20Z</time>
      </trkpt>
      <trkpt lat="50.76995" lon="3.06276">
        <ele>22</ele>
        <time>2010-01-01T01:49:03Z</time>
      </trkpt>
      <trkpt lat="50.7703" lon="3.06267">
        <ele>21</ele>
        <time>2010-01-01T01:49:17Z</time>
      </trkpt>
      <trkpt lat="50.77036" lon="3.06268">
        <ele>20.9</ele>
        <time>2010-01-01T01:49:19Z</time>
      </trkpt>
      <trkpt lat="50.77042" lon="3.06276">
        <ele>21</ele>
        <time>2010-01-01T01:49:23Z</time>
      </trkpt>
      <trkpt lat="50.77051" lon="3.06312">
        <ele>21.2</ele>
        <time>2010-01-01T01:49:32Z</time>
      </trkpt>
      <trkpt lat="50.77065" lon="3.06329">
        <ele>20.9</ele>
        <time>2010-01-01T01:49:39Z</time>
      </trkpt>
      <trkpt lat="50.77107" lon="3.06363">
        <ele>20.1</ele>
        <time>2010-01-01T01:49:58Z</time>
      </trkpt>
      <trkpt lat="50.77153" lon="3.06401">
        <ele>19.7</ele>
        <time>2010-01-01T01:50:19Z</time>
      </trkpt>
      <trkpt lat="50.77184" lon="3.06423">
        <ele>19.4</ele>
        <time>2010-01-01T01:50:33Z</time>
      </trkpt>
      <trkpt lat="50.77196" lon="3.06428">
        <ele>19</ele>
        <time>2010-01-01T01:50:38Z</time>
      </trkpt>
      <trkpt lat="50.77205" lon="3.06429">
        <ele>19</ele>
        <time>2010-01-01T01:50:41Z</time>
      </trkpt>
      <trkpt lat="50.77241" lon="3.06425">
        <ele>18.5</ele>
        <time>2010-01-01T01:50:56Z</time>
      </trkpt>
      <trkpt lat="50.7729" lon="3.06415">
        <ele>17.6</ele>
        <time>2010-01-01T01:51:16Z</time>
      </trkpt>
      <trkpt lat="50.77302" lon="3.06413">
        <ele>17.1</ele>
        <time>2010-01-01T01:51:20Z</time>
      </trkpt>
      <trkpt lat="50.77311" lon="3.06323">
        <ele>17</ele>
        <time>2010-01-01T01:51:43Z</time>
      </trkpt>
      <trkpt lat="50.77323" lon="3.06267">
        <ele>17.1</ele>
        <time>2010-01-01T01:51:58Z</time>
      </trkpt>
      <trkpt lat="50.77354" lon="3.06175">
        <ele>16.3</ele>
        <time>2010-01-01T01:52:25Z</time>
      </trkpt>
      <trkpt lat="50.77354" lon="3.06175">
        <ele>16.3</ele>
        <time>2010-01-01T01:52:25Z</time>
      </trkpt>
      <trkpt lat="50.77362" lon="3.06178">
        <ele>16</ele>
        <time>2010-01-01T01:52:28Z</time>
      </trkpt>
      <trkpt lat="50.77381" lon="3.06181">
        <ele>16</ele>
        <time>2010-01-01T01:52:36Z</time>
      </trkpt>
      <trkpt lat="50.77414" lon="3.06185">
        <ele>15.1</ele>
        <time>2010-01-01T01:52:49Z</time>
      </trkpt>
      <trkpt lat="50.77453" lon="3.06186">
        <ele>14.7</ele>
        <time>2010-01-01T01:53:05Z</time>
      </trkpt>
      <trkpt lat="50.77463" lon="3.06186">
        <ele>14.3</ele>
        <time>2010-01-01T01:53:09Z</time>
      </trkpt>
      <trkpt lat="50.77474" lon="3.06189">
        <ele>14</ele>
        <time>2010-01-01T01:53:13Z</time>
      </trkpt>
      <trkpt lat="50.77517" lon="3.06203">
        <ele>14.1</ele>
        <time>2010-01-01T01:53:31Z</time>
      </trkpt>
      <trkpt lat="50.77594" lon="3.0623">
        <ele>13.1</ele>
        <time>2010-01-01T01:54:02Z</time>
      </trkpt>
      <trkpt lat="50.77615" lon="3.06236">
        <ele>13.4</ele>
        <time>2010-01-01T01:54:11Z</time>
      </trkpt>
      <trkpt lat="50.77636" lon="3.06238">
        <ele>13</ele>
        <time>2010-01-01T01:54:19Z</time>
      </trkpt>
      <trkpt lat="50.77658" lon="3.06233">
        <ele>13</ele>
        <time>2010-01-01T01:54:28Z</time>
      </trkpt>
      <trkpt lat="50.77678" lon="3.06233">
        <ele>13</ele>
        <time>2010-01-01T01:54:36Z</time>
      </trkpt>
      <trkpt lat="50.77716" lon="3.06253">
        <ele>13.1</ele>
        <time>2010-01-01T01:54:52Z</time>
      </trkpt>
      <trkpt lat="50.77735" lon="3.06265">
        <ele>13.3</ele>
        <time>2010-01-01T01:55:00Z</time>
      </trkpt>
      <trkpt lat="50.77775" lon="3.06288">
        <ele>13</ele>
        <time>2010-01-01T01:55:17Z</time>
      </trkpt>
      <trkpt lat="50.77801" lon="3.06299">
        <ele>13</ele>
        <time>2010-01-01T01:55:28Z</time>
      </trkpt>
      <trkpt lat="50.77842" lon="3.06318">
        <ele>13</ele>
        <time>2010-01-01T01:55:45Z</time>
      </trkpt>
      <trkpt lat="50.77891" lon="3.06349">
        <ele>13</ele>
        <time>2010-01-01T01:56:06Z</time>
      </trkpt>
      <trkpt lat="50.779" lon="3.06355">
        <ele>13.1</ele>
        <time>2010-01-01T01:56:10Z</time>
      </trkpt>
      <trkpt lat="50.77911" lon="3.06371">
        <ele>13.1</ele>
        <time>2010-01-01T01:56:16Z</time>
      </trkpt>
      <trkpt lat="50.77911" lon="3.06371">
        <ele>13.1</ele>
        <time>2010-01-01T01:56:16Z</time>
      </trkpt>
      <trkpt lat="50.77898" lon="3.06438">
        <ele>13.5</ele>
        <time>2010-01-01T01:56:34Z</time>
      </trkpt>
      <trkpt lat="50.77863" lon="3.06585">
        <ele>13.8</ele>
        <time>2010-01-01T01:57:14Z</time>
      </trkpt>
      <trkpt lat="50.77815" lon="3.06733">
        <ele>12.9</ele>
        <time>2010-01-01T01:57:56Z</time>
      </trkpt>
      <trkpt lat="50.77777" lon="3.06838">
        <ele>13.8</ele>
        <time>2010-01-01T01:58:27Z</time>
      </trkpt>
      <trkpt lat="50.77677" lon="3.07107">
        <ele>13.2</ele>
        <time>2010-01-01T01:59:45Z</time>
      </trkpt>
      <trkpt lat="50.77592" lon="3.07344">
        <ele>13.4</ele>
        <time>2010-01-01T02:00:54Z</time>
      </trkpt>
      <trkpt lat="50.77535" lon="3.07505">
        <ele>13.1</ele>
        <time>2010-01-01T02:01:41Z</time>
      </trkpt>
      <trkpt lat="50.77498" lon="3.07627">
        <ele>14</ele>
        <time>2010-01-01T02:02:15Z</time>
      </trkpt>
      <trkpt lat="50.77485" lon="3.07685">
        <ele>12.5</ele>
        <time>2010-01-01T02:02:31Z</time>
      </trkpt>
      <trkpt lat="50.77459" lon="3.07818">
        <ele>12.5</ele>
        <time>2010-01-01T02:03:06Z</time>
      </trkpt>
      <trkpt lat="50.77455" lon="3.07841">
        <ele>12.8</ele>
        <time>2010-01-01T02:03:12Z</time>
      </trkpt>
      <trkpt lat="50.77453" lon="3.07842">
        <ele>12.9</ele>
        <time>2010-01-01T02:03:13Z</time>
      </trkpt>
      <trkpt lat="50.77455" lon="3.07841">
        <ele>12.8</ele>
        <time>2010-01-01T02:03:14Z</time>
      </trkpt>
      <trkpt lat="50.77454" lon="3.07852">
        <ele>13.1</ele>
        <time>2010-01-01T02:03:17Z</time>
      </trkpt>
      <trkpt lat="50.77437" lon="3.07977">
        <ele>14.6</ele>
        <time>2010-01-01T02:03:49Z</time>
      </trkpt>
      <trkpt lat="50.7743" lon="3.08048">
        <ele>15.6</ele>
        <time>2010-01-01T02:04:07Z</time>
      </trkpt>
      <trkpt lat="50.7742" lon="3.08187">
        <ele>14.7</ele>
        <time>2010-01-01T02:04:43Z</time>
      </trkpt>
      <trkpt lat="50.7742" lon="3.08272">
        <ele>14.8</ele>
        <time>2010-01-01T02:05:04Z</time>
      </trkpt>
      <trkpt lat="50.77422" lon="3.08426">
        <ele>14.8</ele>
        <time>2010-01-01T02:05:43Z</time>
      </trkpt>
      <trkpt lat="50.77427" lon="3.08509">
        <ele>15.1</ele>
        <time>2010-01-01T02:06:04Z</time>
      </trkpt>
      <trkpt lat="50.77433" lon="3.08554">
        <ele>15</ele>
        <time>2010-01-01T02:06:16Z</time>
      </trkpt>
      <trkpt lat="50.77454" lon="3.08714">
        <ele>15.4</ele>
        <time>2010-01-01T02:06:57Z</time>
      </trkpt>
      <trkpt lat="50.77471" lon="3.08815">
        <ele>14.1</ele>
        <time>2010-01-01T02:07:24Z</time>
      </trkpt>
      <trkpt lat="50.77494" lon="3.08902">
        <ele>13.9</ele>
        <time>2010-01-01T02:07:48Z</time>
      </trkpt>
      <trkpt lat="50.77502" lon="3.08935">
        <ele>13.5</ele>
        <time>2010-01-01T02:07:57Z</time>
      </trkpt>
      <trkpt lat="50.7749" lon="3.09008">
        <ele>14.2</ele>
        <time>2010-01-01T02:08:16Z</time>
      </trkpt>
      <trkpt lat="50.77487" lon="3.09035">
        <ele>12.9</ele>
        <time>2010-01-01T02:08:23Z</time>
      </trkpt>
      <trkpt lat="50.7748" lon="3.0908">
        <ele>13.5</ele>
        <time>2010-01-01T02:08:34Z</time>
      </trkpt>
      <trkpt lat="50.77486" lon="3.09089">
        <ele>13.8</ele>
        <time>2010-01-01T02:08:38Z</time>
      </trkpt>
      <trkpt lat="50.775" lon="3.09096">
        <ele>13.5</ele>
        <time>2010-01-01T02:08:44Z</time>
      </trkpt>
      <trkpt lat="50.77526" lon="3.09114">
        <ele>13.2</ele>
        <time>2010-01-01T02:08:55Z</time>
      </trkpt>
      <trkpt lat="50.77541" lon="3.09129">
        <ele>13.2</ele>
        <time>2010-01-01T02:09:02Z</time>
      </trkpt>
      <trkpt lat="50.7755" lon="3.09138">
        <ele>13.2</ele>
        <time>2010-01-01T02:09:06Z</time>
      </trkpt>
      <trkpt lat="50.77557" lon="3.09144">
        <ele>13.4</ele>
        <time>2010-01-01T02:09:10Z</time>
      </trkpt>
      <trkpt lat="50.77562" lon="3.09152">
        <ele>14</ele>
        <time>2010-01-01T02:09:12Z</time>
      </trkpt>
      <trkpt lat="50.77569" lon="3.09175">
        <ele>14.7</ele>
        <time>2010-01-01T02:09:19Z</time>
      </trkpt>
      <trkpt lat="50.77566" lon="3.09183">
        <ele>15</ele>
        <time>2010-01-01T02:09:21Z</time>
      </trkpt>
      <trkpt lat="50.77512" lon="3.09264">
        <ele>19.2</ele>
        <time>2010-01-01T02:09:51Z</time>
      </trkpt>
      <trkpt lat="50.77511" lon="3.09275">
        <ele>18.7</ele>
        <time>2010-01-01T02:09:54Z</time>
      </trkpt>
      <trkpt lat="50.77511" lon="3.09286">
        <ele>18.7</ele>
        <time>2010-01-01T02:09:57Z</time>
      </trkpt>
      <trkpt lat="50.77534" lon="3.09327">
        <ele>19</ele>
        <time>2010-01-01T02:10:10Z</time>
      </trkpt>
      <trkpt lat="50.7755" lon="3.09354">
        <ele>19.4</ele>
        <time>2010-01-01T02:10:20Z</time>
      </trkpt>
      <trkpt lat="50.77554" lon="3.09361">
        <ele>20</ele>
        <time>2010-01-01T02:10:22Z</time>
      </trkpt>
      <trkpt lat="50.77559" lon="3.09361">
        <ele>20</ele>
        <time>2010-01-01T02:10:24Z</time>
      </trkpt>
      <trkpt lat="50.77599" lon="3.09318">
        <ele>16.4</ele>
        <time>2010-01-01T02:10:44Z</time>
      </trkpt>
      <trkpt lat="50.77608" lon="3.09314">
        <ele>16.1</ele>
        <time>2010-01-01T02:10:47Z</time>
      </trkpt>
      <trkpt lat="50.77616" lon="3.09317">
        <ele>16.3</ele>
        <time>2010-01-01T02:10:51Z</time>
      </trkpt>
      <trkpt lat="50.77651" lon="3.09352">
        <ele>15.7</ele>
        <time>2010-01-01T02:11:07Z</time>
      </trkpt>
      <trkpt lat="50.77706" lon="3.09459">
        <ele>14.8</ele>
        <time>2010-01-01T02:11:42Z</time>
      </trkpt>
      <trkpt lat="50.77774" lon="3.09586">
        <ele>14.3</ele>
        <time>2010-01-01T02:12:24Z</time>
      </trkpt>
      <trkpt lat="50.77836" lon="3.09706">
        <ele>13.4</ele>
        <time>2010-01-01T02:13:03Z</time>
      </trkpt>
      <trkpt lat="50.77857" lon="3.09751">
        <ele>13.5</ele>
        <time>2010-01-01T02:13:18Z</time>
      </trkpt>
      <trkpt lat="50.77861" lon="3.09763">
        <ele>13.5</ele>
        <time>2010-01-01T02:13:21Z</time>
      </trkpt>
      <trkpt lat="50.77877" lon="3.09834">
        <ele>13.8</ele>
        <time>2010-01-01T02:13:40Z</time>
      </trkpt>
      <trkpt lat="50.77882" lon="3.09848">
        <ele>14</ele>
        <time>2010-01-01T02:13:44Z</time>
      </trkpt>
      <trkpt lat="50.77915" lon="3.09909">
        <ele>13.9</ele>
        <time>2010-01-01T02:14:04Z</time>
      </trkpt>
      <trkpt lat="50.78055" lon="3.10178">
        <ele>12.4</ele>
        <time>2010-01-01T02:15:33Z</time>
      </trkpt>
      <trkpt lat="50.78133" lon="3.10323">
        <ele>12.2</ele>
        <time>2010-01-01T02:16:21Z</time>
      </trkpt>
      <trkpt lat="50.78201" lon="3.10453">
        <ele>12.6</ele>
        <time>2010-01-01T02:17:04Z</time>
      </trkpt>
      <trkpt lat="50.78238" lon="3.1051">
        <ele>12.5</ele>
        <time>2010-01-01T02:17:24Z</time>
      </trkpt>
      <trkpt lat="50.78296" lon="3.10587">
        <ele>11.9</ele>
        <time>2010-01-01T02:17:55Z</time>
      </trkpt>
      <trkpt lat="50.7836" lon="3.10662">
        <ele>13.5</ele>
        <time>2010-01-01T02:18:26Z</time>
      </trkpt>
      <trkpt lat="50.78396" lon="3.10702">
        <ele>13.8</ele>
        <time>2010-01-01T02:18:44Z</time>
      </trkpt>
      <trkpt lat="50.78434" lon="3.1074">
        <ele>14</ele>
        <time>2010-01-01T02:19:02Z</time>
      </trkpt>
      <trkpt lat="50.78467" lon="3.10771">
        <ele>13.7</ele>
        <time>2010-01-01T02:19:17Z</time>
      </trkpt>
      <trkpt lat="50.78492" lon="3.10789">
        <ele>13.4</ele>
        <time>2010-01-01T02:19:28Z</time>
      </trkpt>
      <trkpt lat="50.78508" lon="3.10811">
        <ele>14.1</ele>
        <time>2010-01-01T02:19:37Z</time>
      </trkpt>
      <trkpt lat="50.78516" lon="3.10825">
        <ele>14.3</ele>
        <time>2010-01-01T02:19:42Z</time>
      </trkpt>
      <trkpt lat="50.78532" lon="3.10842">
        <ele>13.6</ele>
        <time>2010-01-01T02:19:49Z</time>
      </trkpt>
      <trkpt lat="50.78566" lon="3.10887">
        <ele>12.8</ele>
        <time>2010-01-01T02:20:07Z</time>
      </trkpt>
      <trkpt lat="50.78603" lon="3.10939">
        <ele>12.2</ele>
        <time>2010-01-01T02:20:27Z</time>
      </trkpt>
      <trkpt lat="50.78658" lon="3.11025">
        <ele>12.2</ele>
        <time>2010-01-01T02:20:58Z</time>
      </trkpt>
      <trkpt lat="50.78697" lon="3.11101">
        <ele>13.1</ele>
        <time>2010-01-01T02:21:23Z</time>
      </trkpt>
      <trkpt lat="50.78768" lon="3.11256">
        <ele>12.7</ele>
        <time>2010-01-01T02:22:11Z</time>
      </trkpt>
      <trkpt lat="50.78814" lon="3.11383">
        <ele>13</ele>
        <time>2010-01-01T02:22:48Z</time>
      </trkpt>
      <trkpt lat="50.78852" lon="3.11513">
        <ele>12.1</ele>
        <time>2010-01-01T02:23:24Z</time>
      </trkpt>
      <trkpt lat="50.78862" lon="3.11556">
        <ele>12.9</ele>
        <time>2010-01-01T02:23:36Z</time>
      </trkpt>
      <trkpt lat="50.78879" lon="3.11634">
        <ele>12.2</ele>
        <time>2010-01-01T02:23:57Z</time>
      </trkpt>
      <trkpt lat="50.78902" lon="3.11769">
        <ele>12.1</ele>
        <time>2010-01-01T02:24:32Z</time>
      </trkpt>
      <trkpt lat="50.78917" lon="3.11895">
        <ele>13</ele>
        <time>2010-01-01T02:25:05Z</time>
      </trkpt>
      <trkpt lat="50.7893" lon="3.12034">
        <ele>12</ele>
        <time>2010-01-01T02:25:40Z</time>
      </trkpt>
      <trkpt lat="50.78943" lon="3.12124">
        <ele>13</ele>
        <time>2010-01-01T02:26:04Z</time>
      </trkpt>
      <trkpt lat="50.78968" lon="3.12265">
        <ele>12.8</ele>
        <time>2010-01-01T02:26:41Z</time>
      </trkpt>
      <trkpt lat="50.7898" lon="3.12305">
        <ele>12.7</ele>
        <time>2010-01-01T02:26:52Z</time>
      </trkpt>
      <trkpt lat="50.78984" lon="3.12313">
        <ele>12.8</ele>
        <time>2010-01-01T02:26:54Z</time>
      </trkpt>
      <trkpt lat="50.78991" lon="3.1232">
        <ele>13</ele>
        <time>2010-01-01T02:26:58Z</time>
      </trkpt>
      <trkpt lat="50.78999" lon="3.12335">
        <ele>14</ele>
        <time>2010-01-01T02:27:03Z</time>
      </trkpt>
      <trkpt lat="50.79008" lon="3.12367">
        <ele>13.5</ele>
        <time>2010-01-01T02:27:12Z</time>
      </trkpt>
      <trkpt lat="50.79025" lon="3.12431">
        <ele>13.5</ele>
        <time>2010-01-01T02:27:29Z</time>
      </trkpt>
      <trkpt lat="50.79027" lon="3.12456">
        <ele>14</ele>
        <time>2010-01-01T02:27:36Z</time>
      </trkpt>
      <trkpt lat="50.79036" lon="3.12492">
        <ele>14.2</ele>
        <time>2010-01-01T02:27:45Z</time>
      </trkpt>
      <trkpt lat="50.79049" lon="3.12529">
        <ele>16</ele>
        <time>2010-01-01T02:27:56Z</time>
      </trkpt>
      <trkpt lat="50.79095" lon="3.12488">
        <ele>14.5</ele>
        <time>2010-01-01T02:28:17Z</time>
      </trkpt>
      <trkpt lat="50.79069" lon="3.12416">
        <ele>13.9</ele>
        <time>2010-01-01T02:28:38Z</time>
      </trkpt>
      <trkpt lat="50.79064" lon="3.12388">
        <ele>12.6</ele>
        <time>2010-01-01T02:28:46Z</time>
      </trkpt>
      <trkpt lat="50.79063" lon="3.12339">
        <ele>12.5</ele>
        <time>2010-01-01T02:28:58Z</time>
      </trkpt>
      <trkpt lat="50.79078" lon="3.12264">
        <ele>13.3</ele>
        <time>2010-01-01T02:29:18Z</time>
      </trkpt>
      <trkpt lat="50.79094" lon="3.1221">
        <ele>12.5</ele>
        <time>2010-01-01T02:29:33Z</time>
      </trkpt>
      <trkpt lat="50.79126" lon="3.12126">
        <ele>12.9</ele>
        <time>2010-01-01T02:29:58Z</time>
      </trkpt>
      <trkpt lat="50.79228" lon="3.11937">
        <ele>12.8</ele>
        <time>2010-01-01T02:31:01Z</time>
      </trkpt>
      <trkpt lat="50.79278" lon="3.11851">
        <ele>14</ele>
        <time>2010-01-01T02:31:30Z</time>
      </trkpt>
      <trkpt lat="50.79427" lon="3.11579">
        <ele>13.3</ele>
        <time>2010-01-01T02:33:01Z</time>
      </trkpt>
      <trkpt lat="50.79448" lon="3.1153">
        <ele>14</ele>
        <time>2010-01-01T02:33:16Z</time>
      </trkpt>
      <trkpt lat="50.79473" lon="3.11434">
        <ele>14</ele>
        <time>2010-01-01T02:33:43Z</time>
      </trkpt>
      <trkpt lat="50.79473" lon="3.11416">
        <ele>14</ele>
        <time>2010-01-01T02:33:47Z</time>
      </trkpt>
      <trkpt lat="50.7948" lon="3.11377">
        <ele>14</ele>
        <time>2010-01-01T02:33:57Z</time>
      </trkpt>
      <trkpt lat="50.7948" lon="3.11352">
        <ele>13.9</ele>
        <time>2010-01-01T02:34:04Z</time>
      </trkpt>
      <trkpt lat="50.79479" lon="3.11305">
        <ele>14.5</ele>
        <time>2010-01-01T02:34:16Z</time>
      </trkpt>
      <trkpt lat="50.7947" lon="3.11245">
        <ele>13.8</ele>
        <time>2010-01-01T02:34:31Z</time>
      </trkpt>
      <trkpt lat="50.79458" lon="3.11185">
        <ele>13.2</ele>
        <time>2010-01-01T02:34:47Z</time>
      </trkpt>
      <trkpt lat="50.79443" lon="3.11131">
        <ele>13.2</ele>
        <time>2010-01-01T02:35:02Z</time>
      </trkpt>
      <trkpt lat="50.79432" lon="3.11104">
        <ele>13.2</ele>
        <time>2010-01-01T02:35:10Z</time>
      </trkpt>
      <trkpt lat="50.79405" lon="3.11048">
        <ele>13.3</ele>
        <time>2010-01-01T02:35:28Z</time>
      </trkpt>
      <trkpt lat="50.79381" lon="3.11012">
        <ele>13.4</ele>
        <time>2010-01-01T02:35:41Z</time>
      </trkpt>
      <trkpt lat="50.79284" lon="3.1094">
        <ele>13.3</ele>
        <time>2010-01-01T02:36:24Z</time>
      </trkpt>
      <trkpt lat="50.79233" lon="3.10909">
        <ele>12.8</ele>
        <time>2010-01-01T02:36:46Z</time>
      </trkpt>
      <trkpt lat="50.79138" lon="3.10858">
        <ele>13.1</ele>
        <time>2010-01-01T02:37:26Z</time>
      </trkpt>
      <trkpt lat="50.79092" lon="3.10834">
        <ele>13</ele>
        <time>2010-01-01T02:37:46Z</time>
      </trkpt>
      <trkpt lat="50.7909" lon="3.10827">
        <ele>13.7</ele>
        <time>2010-01-01T02:37:47Z</time>
      </trkpt>
      <trkpt lat="50.79092" lon="3.1082">
        <ele>14.5</ele>
        <time>2010-01-01T02:37:49Z</time>
      </trkpt>
      <trkpt lat="50.79122" lon="3.10755">
        <ele>16.4</ele>
        <time>2010-01-01T02:38:10Z</time>
      </trkpt>
      <trkpt lat="50.79133" lon="3.10738">
        <ele>16.6</ele>
        <time>2010-01-01T02:38:16Z</time>
      </trkpt>
      <trkpt lat="50.79169" lon="3.10696">
        <ele>17</ele>
        <time>2010-01-01T02:38:34Z</time>
      </trkpt>
      <trkpt lat="50.79171" lon="3.10694">
        <ele>17</ele>
        <time>2010-01-01T02:38:35Z</time>
      </trkpt>
      <trkpt lat="50.79046" lon="3.10607">
        <ele>17</ele>
        <time>2010-01-01T02:39:29Z</time>
      </trkpt>
      <trkpt lat="50.78917" lon="3.10534">
        <ele>17</ele>
        <time>2010-01-01T02:40:24Z</time>
      </trkpt>
      <trkpt lat="50.78871" lon="3.1051">
        <ele>16</ele>
        <time>2010-01-01T02:40:44Z</time>
      </trkpt>
      <trkpt lat="50.78845" lon="3.10496">
        <ele>16.1</ele>
        <time>2010-01-01T02:40:55Z</time>
      </trkpt>
      <trkpt lat="50.7882" lon="3.10479">
        <ele>16.4</ele>
        <time>2010-01-01T02:41:06Z</time>
      </trkpt>
      <trkpt lat="50.78784" lon="3.10447">
        <ele>16.9</ele>
        <time>2010-01-01T02:41:22Z</time>
      </trkpt>
      <trkpt lat="50.78748" lon="3.10407">
        <ele>17</ele>
        <time>2010-01-01T02:41:40Z</time>
      </trkpt>
      <trkpt lat="50.78676" lon="3.10539">
        <ele>15.7</ele>
        <time>2010-01-01T02:42:24Z</time>
      </trkpt>
      <trkpt lat="50.78649" lon="3.10602">
        <ele>15.2</ele>
        <time>2010-01-01T02:42:43Z</time>
      </trkpt>
      <trkpt lat="50.78625" lon="3.10677">
        <ele>14.6</ele>
        <time>2010-01-01T02:43:04Z</time>
      </trkpt>
      <trkpt lat="50.78612" lon="3.10699">
        <ele>14</ele>
        <time>2010-01-01T02:43:12Z</time>
      </trkpt>
      <trkpt lat="50.78603" lon="3.10706">
        <ele>14.2</ele>
        <time>2010-01-01T02:43:16Z</time>
      </trkpt>
      <trkpt lat="50.78595" lon="3.10709">
        <ele>14.3</ele>
        <time>2010-01-01T02:43:19Z</time>
      </trkpt>
      <trkpt lat="50.78563" lon="3.1072">
        <ele>14.1</ele>
        <time>2010-01-01T02:43:32Z</time>
      </trkpt>
      <trkpt lat="50.78551" lon="3.10719">
        <ele>14.1</ele>
        <time>2010-01-01T02:43:37Z</time>
      </trkpt>
      <trkpt lat="50.78535" lon="3.10709">
        <ele>14.1</ele>
        <time>2010-01-01T02:43:44Z</time>
      </trkpt>
      <trkpt lat="50.78408" lon="3.10591">
        <ele>13.9</ele>
        <time>2010-01-01T02:44:43Z</time>
      </trkpt>
      <trkpt lat="50.7838" lon="3.10558">
        <ele>14</ele>
        <time>2010-01-01T02:44:57Z</time>
      </trkpt>
      <trkpt lat="50.78362" lon="3.10533">
        <ele>14</ele>
        <time>2010-01-01T02:45:07Z</time>
      </trkpt>
      <trkpt lat="50.7831" lon="3.10455">
        <ele>14.1</ele>
        <time>2010-01-01T02:45:35Z</time>
      </trkpt>
      <trkpt lat="50.78273" lon="3.10398">
        <ele>13.9</ele>
        <time>2010-01-01T02:45:56Z</time>
      </trkpt>
      <trkpt lat="50.78227" lon="3.10318">
        <ele>13.9</ele>
        <time>2010-01-01T02:46:23Z</time>
      </trkpt>
      <trkpt lat="50.78199" lon="3.10262">
        <ele>14</ele>
        <time>2010-01-01T02:46:41Z</time>
      </trkpt>
      <trkpt lat="50.78167" lon="3.1019">
        <ele>14</ele>
        <time>2010-01-01T02:47:04Z</time>
      </trkpt>
      <trkpt lat="50.781" lon="3.10053">
        <ele>14</ele>
        <time>2010-01-01T02:47:48Z</time>
      </trkpt>
      <trkpt lat="50.78" lon="3.09856">
        <ele>13.8</ele>
        <time>2010-01-01T02:48:51Z</time>
      </trkpt>
      <trkpt lat="50.779" lon="3.09674">
        <ele>13.6</ele>
        <time>2010-01-01T02:49:53Z</time>
      </trkpt>
      <trkpt lat="50.77688" lon="3.0926">
        <ele>12.9</ele>
        <time>2010-01-01T02:52:07Z</time>
      </trkpt>
      <trkpt lat="50.77631" lon="3.09123">
        <ele>13.3</ele>
        <time>2010-01-01T02:52:49Z</time>
      </trkpt>
      <trkpt lat="50.77578" lon="3.08964">
        <ele>13.4</ele>
        <time>2010-01-01T02:53:34Z</time>
      </trkpt>
      <trkpt lat="50.77564" lon="3.08913">
        <ele>12.7</ele>
        <time>2010-01-01T02:53:48Z</time>
      </trkpt>
      <trkpt lat="50.7753" lon="3.08771">
        <ele>13.1</ele>
        <time>2010-01-01T02:54:27Z</time>
      </trkpt>
      <trkpt lat="50.77512" lon="3.08665">
        <ele>12.4</ele>
        <time>2010-01-01T02:54:55Z</time>
      </trkpt>
      <trkpt lat="50.77498" lon="3.08558">
        <ele>13.9</ele>
        <time>2010-01-01T02:55:22Z</time>
      </trkpt>
      <trkpt lat="50.77489" lon="3.08446">
        <ele>12.4</ele>
        <time>2010-01-01T02:55:51Z</time>
      </trkpt>
      <trkpt lat="50.77484" lon="3.08332">
        <ele>13</ele>
        <time>2010-01-01T02:56:20Z</time>
      </trkpt>
      <trkpt lat="50.77485" lon="3.08205">
        <ele>12.8</ele>
        <time>2010-01-01T02:56:52Z</time>
      </trkpt>
      <trkpt lat="50.77491" lon="3.08074">
        <ele>13.6</ele>
        <time>2010-01-01T02:57:25Z</time>
      </trkpt>
      <trkpt lat="50.77508" lon="3.07919">
        <ele>13</ele>
        <time>2010-01-01T02:58:05Z</time>
      </trkpt>
      <trkpt lat="50.77525" lon="3.07816">
        <ele>13.8</ele>
        <time>2010-01-01T02:58:32Z</time>
      </trkpt>
      <trkpt lat="50.77551" lon="3.0769">
        <ele>13.7</ele>
        <time>2010-01-01T02:59:06Z</time>
      </trkpt>
      <trkpt lat="50.77575" lon="3.076">
        <ele>13.4</ele>
        <time>2010-01-01T02:59:30Z</time>
      </trkpt>
      <trkpt lat="50.77599" lon="3.07522">
        <ele>12.7</ele>
        <time>2010-01-01T02:59:52Z</time>
      </trkpt>
      <trkpt lat="50.7762" lon="3.07461">
        <ele>13</ele>
        <time>2010-01-01T03:00:10Z</time>
      </trkpt>
      <trkpt lat="50.77707" lon="3.0722">
        <ele>14</ele>
        <time>2010-01-01T03:01:20Z</time>
      </trkpt>
      <trkpt lat="50.77709" lon="3.07215">
        <ele>13.9</ele>
        <time>2010-01-01T03:01:22Z</time>
      </trkpt>
      <trkpt lat="50.77793" lon="3.06991">
        <ele>13.1</ele>
        <time>2010-01-01T03:02:27Z</time>
      </trkpt>
      <trkpt lat="50.77849" lon="3.06835">
        <ele>13.2</ele>
        <time>2010-01-01T03:03:13Z</time>
      </trkpt>
      <trkpt lat="50.77883" lon="3.06739">
        <ele>13.3</ele>
        <time>2010-01-01T03:03:41Z</time>
      </trkpt>
      <trkpt lat="50.77914" lon="3.0664">
        <ele>13.8</ele>
        <time>2010-01-01T03:04:09Z</time>
      </trkpt>
      <trkpt lat="50.77925" lon="3.06593">
        <ele>13.3</ele>
        <time>2010-01-01T03:04:21Z</time>
      </trkpt>
      <trkpt lat="50.77957" lon="3.06458">
        <ele>13</ele>
        <time>2010-01-01T03:04:58Z</time>
      </trkpt>
      <trkpt lat="50.77969" lon="3.06417">
        <ele>13</ele>
        <time>2010-01-01T03:05:09Z</time>
      </trkpt>
      <trkpt lat="50.78028" lon="3.06251">
        <ele>12.1</ele>
        <time>2010-01-01T03:05:57Z</time>
      </trkpt>
      <trkpt lat="50.78073" lon="3.06149">
        <ele>12.9</ele>
        <time>2010-01-01T03:06:29Z</time>
      </trkpt>
      <trkpt lat="50.78081" lon="3.06114">
        <ele>12.9</ele>
        <time>2010-01-01T03:06:38Z</time>
      </trkpt>
      <trkpt lat="50.78095" lon="3.05989">
        <ele>12.8</ele>
        <time>2010-01-01T03:07:11Z</time>
      </trkpt>
      <trkpt lat="50.7809" lon="3.05723">
        <ele>12.7</ele>
        <time>2010-01-01T03:08:18Z</time>
      </trkpt>
      <trkpt lat="50.78076" lon="3.05614">
        <ele>13.7</ele>
        <time>2010-01-01T03:08:46Z</time>
      </trkpt>
      <trkpt lat="50.78051" lon="3.05442">
        <ele>13.8</ele>
        <time>2010-01-01T03:09:31Z</time>
      </trkpt>
      <trkpt lat="50.78007" lon="3.05233">
        <ele>14.3</ele>
        <time>2010-01-01T03:10:26Z</time>
      </trkpt>
      <trkpt lat="50.78001" lon="3.0521">
        <ele>14.1</ele>
        <time>2010-01-01T03:10:33Z</time>
      </trkpt>
      <trkpt lat="50.77994" lon="3.05187">
        <ele>13.8</ele>
        <time>2010-01-01T03:10:39Z</time>
      </trkpt>
      <trkpt lat="50.77964" lon="3.05118">
        <ele>14</ele>
        <time>2010-01-01T03:11:00Z</time>
      </trkpt>
      <trkpt lat="50.77947" lon="3.05085">
        <ele>14.1</ele>
        <time>2010-01-01T03:11:11Z</time>
      </trkpt>
      <trkpt lat="50.77933" lon="3.05068">
        <ele>13.9</ele>
        <time>2010-01-01T03:11:18Z</time>
      </trkpt>
      <trkpt lat="50.77903" lon="3.05036">
        <ele>13.4</ele>
        <time>2010-01-01T03:11:33Z</time>
      </trkpt>
      <trkpt lat="50.77869" lon="3.05012">
        <ele>13.4</ele>
        <time>2010-01-01T03:11:48Z</time>
      </trkpt>
      <trkpt lat="50.77866" lon="3.05006">
        <ele>13.6</ele>
        <time>2010-01-01T03:11:50Z</time>
      </trkpt>
      <trkpt lat="50.77851" lon="3.04953">
        <ele>13</ele>
        <time>2010-01-01T03:12:04Z</time>
      </trkpt>
      <trkpt lat="50.77783" lon="3.0469">
        <ele>13.1</ele>
        <time>2010-01-01T03:13:16Z</time>
      </trkpt>
      <trkpt lat="50.77783" lon="3.04682">
        <ele>12.8</ele>
        <time>2010-01-01T03:13:18Z</time>
      </trkpt>
      <trkpt lat="50.7778" lon="3.04634">
        <ele>13.1</ele>
        <time>2010-01-01T03:13:30Z</time>
      </trkpt>
      <trkpt lat="50.77773" lon="3.04562">
        <ele>13.7</ele>
        <time>2010-01-01T03:13:49Z</time>
      </trkpt>
      <trkpt lat="50.7779" lon="3.04555">
        <ele>14.4</ele>
        <time>2010-01-01T03:13:56Z</time>
      </trkpt>
      <trkpt lat="50.77853" lon="3.04507">
        <ele>16.7</ele>
        <time>2010-01-01T03:14:24Z</time>
      </trkpt>
      <trkpt lat="50.77838" lon="3.04466">
        <ele>17.2</ele>
        <time>2010-01-01T03:14:36Z</time>
      </trkpt>
      <trkpt lat="50.77834" lon="3.04454">
        <ele>17</ele>
        <time>2010-01-01T03:14:39Z</time>
      </trkpt>
      <trkpt lat="50.77827" lon="3.04437">
        <ele>17</ele>
        <time>2010-01-01T03:14:44Z</time>
      </trkpt>
      <trkpt lat="50.77826" lon="3.04426">
        <ele>17</ele>
        <time>2010-01-01T03:14:47Z</time>
      </trkpt>
      <trkpt lat="50.77826" lon="3.04404">
        <ele>17.3</ele>
        <time>2010-01-01T03:14:53Z</time>
      </trkpt>
      <trkpt lat="50.77822" lon="3.04404">
        <ele>17.3</ele>
        <time>2010-01-01T03:14:54Z</time>
      </trkpt>
      <trkpt lat="50.77799" lon="3.04401">
        <ele>16.7</ele>
        <time>2010-01-01T03:15:04Z</time>
      </trkpt>
      <trkpt lat="50.77778" lon="3.04414">
        <ele>15.1</ele>
        <time>2010-01-01T03:15:13Z</time>
      </trkpt>
      <trkpt lat="50.77767" lon="3.04414">
        <ele>15.1</ele>
        <time>2010-01-01T03:15:17Z</time>
      </trkpt>
      <trkpt lat="50.77759" lon="3.04409">
        <ele>15.1</ele>
        <time>2010-01-01T03:15:21Z</time>
      </trkpt>
      <trkpt lat="50.77743" lon="3.04373">
        <ele>15</ele>
        <time>2010-01-01T03:15:32Z</time>
      </trkpt>
      <trkpt lat="50.77732" lon="3.04315">
        <ele>15.4</ele>
        <time>2010-01-01T03:15:47Z</time>
      </trkpt>
      <trkpt lat="50.77722" lon="3.04247">
        <ele>16</ele>
        <time>2010-01-01T03:16:05Z</time>
      </trkpt>
      <trkpt lat="50.7773" lon="3.04213">
        <ele>16.6</ele>
        <time>2010-01-01T03:16:14Z</time>
      </trkpt>
      <trkpt lat="50.77738" lon="3.04185">
        <ele>17.4</ele>
        <time>2010-01-01T03:16:22Z</time>
      </trkpt>
      <trkpt lat="50.77742" lon="3.04174">
        <ele>17.2</ele>
        <time>2010-01-01T03:16:25Z</time>
      </trkpt>
      <trkpt lat="50.77742" lon="3.04155">
        <ele>17.4</ele>
        <time>2010-01-01T03:16:30Z</time>
      </trkpt>
      <trkpt lat="50.77729" lon="3.04073">
        <ele>17.2</ele>
        <time>2010-01-01T03:16:51Z</time>
      </trkpt>
      <trkpt lat="50.77707" lon="3.03971">
        <ele>17</ele>
        <time>2010-01-01T03:17:18Z</time>
      </trkpt>
      <trkpt lat="50.77634" lon="3.0399">
        <ele>15.7</ele>
        <time>2010-01-01T03:17:48Z</time>
      </trkpt>
      <trkpt lat="50.77629" lon="3.03997">
        <ele>15.3</ele>
        <time>2010-01-01T03:17:51Z</time>
      </trkpt>
      <trkpt lat="50.77626" lon="3.04007">
        <ele>15.1</ele>
        <time>2010-01-01T03:17:53Z</time>
      </trkpt>
      <trkpt lat="50.7762" lon="3.04014">
        <ele>14.6</ele>
        <time>2010-01-01T03:17:56Z</time>
      </trkpt>
      <trkpt lat="50.77613" lon="3.03978">
        <ele>14.9</ele>
        <time>2010-01-01T03:18:06Z</time>
      </trkpt>
      <trkpt lat="50.77562" lon="3.03774">
        <ele>14.7</ele>
        <time>2010-01-01T03:19:01Z</time>
      </trkpt>
      <trkpt lat="50.77515" lon="3.03584">
        <ele>14.7</ele>
        <time>2010-01-01T03:19:53Z</time>
      </trkpt>
      <trkpt lat="50.77516" lon="3.03574">
        <ele>15.4</ele>
        <time>2010-01-01T03:19:56Z</time>
      </trkpt>
      <trkpt lat="50.7748" lon="3.03401">
        <ele>15.8</ele>
        <time>2010-01-01T03:20:42Z</time>
      </trkpt>
      <trkpt lat="50.7748" lon="3.03398">
        <ele>15.8</ele>
        <time>2010-01-01T03:20:43Z</time>
      </trkpt>
      <trkpt lat="50.77358" lon="3.03452">
        <ele>17.1</ele>
        <time>2010-01-01T03:21:33Z</time>
      </trkpt>
      <trkpt lat="50.77354" lon="3.03448">
        <ele>17.3</ele>
        <time>2010-01-01T03:21:35Z</time>
      </trkpt>
      <trkpt lat="50.77356" lon="3.03441">
        <ele>17.2</ele>
        <time>2010-01-01T03:21:37Z</time>
      </trkpt>
      <trkpt lat="50.77397" lon="3.03423">
        <ele>14.2</ele>
        <time>2010-01-01T03:21:54Z</time>
      </trkpt>
      <trkpt lat="50.77398" lon="3.03427">
        <ele>14.1</ele>
        <time>2010-01-01T03:21:55Z</time>
      </trkpt>
      <trkpt lat="50.77391" lon="3.03398">
        <ele>14.2</ele>
        <time>2010-01-01T03:22:03Z</time>
      </trkpt>
      <trkpt lat="50.7738" lon="3.03341">
        <ele>13.9</ele>
        <time>2010-01-01T03:22:18Z</time>
      </trkpt>
      <trkpt lat="50.7735" lon="3.0313">
        <ele>14.2</ele>
        <time>2010-01-01T03:23:13Z</time>
      </trkpt>
      <trkpt lat="50.77342" lon="3.03044">
        <ele>14.6</ele>
        <time>2010-01-01T03:23:35Z</time>
      </trkpt>
      <trkpt lat="50.77336" lon="3.03016">
        <ele>14.8</ele>
        <time>2010-01-01T03:23:42Z</time>
      </trkpt>
      <trkpt lat="50.77328" lon="3.02949">
        <ele>16.3</ele>
        <time>2010-01-01T03:24:00Z</time>
      </trkpt>
      <trkpt lat="50.7732" lon="3.02859">
        <ele>16.4</ele>
        <time>2010-01-01T03:24:23Z</time>
      </trkpt>
      <trkpt lat="50.77315" lon="3.02812">
        <ele>17.2</ele>
        <time>2010-01-01T03:24:35Z</time>
      </trkpt>
      <trkpt lat="50.77317" lon="3.02783">
        <ele>17.7</ele>
        <time>2010-01-01T03:24:42Z</time>
      </trkpt>
      <trkpt lat="50.77319" lon="3.02653">
        <ele>17.5</ele>
        <time>2010-01-01T03:25:15Z</time>
      </trkpt>
      <trkpt lat="50.77318" lon="3.02491">
        <ele>18.1</ele>
        <time>2010-01-01T03:25:56Z</time>
      </trkpt>
      <trkpt lat="50.77319" lon="3.02419">
        <ele>18.9</ele>
        <time>2010-01-01T03:26:14Z</time>
      </trkpt>
      <trkpt lat="50.7745" lon="3.0242">
        <ele>20.2</ele>
        <time>2010-01-01T03:27:07Z</time>
      </trkpt>
      <trkpt lat="50.77443" lon="3.02398">
        <ele>19.7</ele>
        <time>2010-01-01T03:27:13Z</time>
      </trkpt>
      <trkpt lat="50.77437" lon="3.02373">
        <ele>18.4</ele>
        <time>2010-01-01T03:27:20Z</time>
      </trkpt>
      <trkpt lat="50.77431" lon="3.02343">
        <ele>17.1</ele>
        <time>2010-01-01T03:27:28Z</time>
      </trkpt>
      <trkpt lat="50.77429" lon="3.02337">
        <ele>16.7</ele>
        <time>2010-01-01T03:27:29Z</time>
      </trkpt>
      <trkpt lat="50.7742" lon="3.02327">
        <ele>14.8</ele>
        <time>2010-01-01T03:27:34Z</time>
      </trkpt>
      <trkpt lat="50.77419" lon="3.02327">
        <ele>14.7</ele>
        <time>2010-01-01T03:27:34Z</time>
      </trkpt>
      <trkpt lat="50.7741" lon="3.02201">
        <ele>15.1</ele>
        <time>2010-01-01T03:28:06Z</time>
      </trkpt>
      <trkpt lat="50.77395" lon="3.02074">
        <ele>14.5</ele>
        <time>2010-01-01T03:28:39Z</time>
      </trkpt>
      <trkpt lat="50.7738" lon="3.01975">
        <ele>14</ele>
        <time>2010-01-01T03:29:05Z</time>
      </trkpt>
      <trkpt lat="50.77373" lon="3.01938">
        <ele>13.3</ele>
        <time>2010-01-01T03:29:15Z</time>
      </trkpt>
      <trkpt lat="50.77359" lon="3.0187">
        <ele>13.8</ele>
        <time>2010-01-01T03:29:33Z</time>
      </trkpt>
      <trkpt lat="50.77354" lon="3.0184">
        <ele>13.5</ele>
        <time>2010-01-01T03:29:41Z</time>
      </trkpt>
      <trkpt lat="50.77355" lon="3.01832">
        <ele>13.6</ele>
        <time>2010-01-01T03:29:43Z</time>
      </trkpt>
      <trkpt lat="50.77359" lon="3.01826">
        <ele>13.9</ele>
        <time>2010-01-01T03:29:45Z</time>
      </trkpt>
      <trkpt lat="50.77365" lon="3.01819">
        <ele>14.2</ele>
        <time>2010-01-01T03:29:48Z</time>
      </trkpt>
      <trkpt lat="50.77363" lon="3.01817">
        <ele>14.1</ele>
        <time>2010-01-01T03:29:49Z</time>
      </trkpt>
      <trkpt lat="50.77332" lon="3.01745">
        <ele>13.9</ele>
        <time>2010-01-01T03:30:11Z</time>
      </trkpt>
      <trkpt lat="50.77326" lon="3.01702">
        <ele>14.4</ele>
        <time>2010-01-01T03:30:22Z</time>
      </trkpt>
      <trkpt lat="50.77285" lon="3.01666">
        <ele>13.5</ele>
        <time>2010-01-01T03:30:41Z</time>
      </trkpt>
      <trkpt lat="50.77265" lon="3.01647">
        <ele>13.4</ele>
        <time>2010-01-01T03:30:50Z</time>
      </trkpt>
      <trkpt lat="50.77257" lon="3.01634">
        <ele>13.4</ele>
        <time>2010-01-01T03:30:55Z</time>
      </trkpt>
      <trkpt lat="50.7724" lon="3.01599">
        <ele>13.8</ele>
        <time>2010-01-01T03:31:06Z</time>
      </trkpt>
      <trkpt lat="50.7723" lon="3.01581">
        <ele>13.9</ele>
        <time>2010-01-01T03:31:12Z</time>
      </trkpt>
      <trkpt lat="50.7716" lon="3.01484">
        <ele>13.3</ele>
        <time>2010-01-01T03:31:49Z</time>
      </trkpt>
      <trkpt lat="50.77041" lon="3.01346">
        <ele>13.5</ele>
        <time>2010-01-01T03:32:48Z</time>
      </trkpt>
      <trkpt lat="50.7696" lon="3.01238">
        <ele>13.6</ele>
        <time>2010-01-01T03:33:31Z</time>
      </trkpt>
      <trkpt lat="50.76939" lon="3.01205">
        <ele>13.5</ele>
        <time>2010-01-01T03:33:43Z</time>
      </trkpt>
      <trkpt lat="50.76859" lon="3.01035">
        <ele>13.7</ele>
        <time>2010-01-01T03:34:36Z</time>
      </trkpt>
      <trkpt lat="50.76835" lon="3.00978">
        <ele>13.8</ele>
        <time>2010-01-01T03:34:54Z</time>
      </trkpt>
      <trkpt lat="50.76767" lon="3.00827">
        <ele>13.6</ele>
        <time>2010-01-01T03:35:40Z</time>
      </trkpt>
      <trkpt lat="50.76684" lon="3.0065">
        <ele>13.8</ele>
        <time>2010-01-01T03:36:36Z</time>
      </trkpt>
      <trkpt lat="50.76629" lon="3.00528">
        <ele>12.6</ele>
        <time>2010-01-01T03:37:14Z</time>
      </trkpt>
      <trkpt lat="50.76578" lon="3.00458">
        <ele>15.7</ele>
        <time>2010-01-01T03:37:41Z</time>
      </trkpt>
      <trkpt lat="50.76564" lon="3.00436">
        <ele>15.2</ele>
        <time>2010-01-01T03:37:49Z</time>
      </trkpt>
      <trkpt lat="50.76547" lon="3.00386">
        <ele>14.4</ele>
        <time>2010-01-01T03:38:03Z</time>
      </trkpt>
      <trkpt lat="50.76554" lon="3.00379">
        <ele>14.9</ele>
        <time>2010-01-01T03:38:07Z</time>
      </trkpt>
      <trkpt lat="50.76587" lon="3.00372">
        <ele>16.1</ele>
        <time>2010-01-01T03:38:20Z</time>
      </trkpt>
      <trkpt lat="50.76607" lon="3.00408">
        <ele>16.8</ele>
        <time>2010-01-01T03:38:32Z</time>
      </trkpt>
      <trkpt lat="50.76578" lon="3.00458">
        <ele>15.7</ele>
        <time>2010-01-01T03:38:49Z</time>
      </trkpt>
      <trkpt lat="50.76542" lon="3.00522">
        <ele>17</ele>
        <time>2010-01-01T03:39:11Z</time>
      </trkpt>
      <trkpt lat="50.76534" lon="3.00532">
        <ele>17</ele>
        <time>2010-01-01T03:39:15Z</time>
      </trkpt>
      <trkpt lat="50.76533" lon="3.0053">
        <ele>17</ele>
        <time>2010-01-01T03:39:16Z</time>
      </trkpt>
      <trkpt lat="50.76466" lon="3.00417">
        <ele>16</ele>
        <time>2010-01-01T03:39:55Z</time>
      </trkpt>
      <trkpt lat="50.76488" lon="3.00388">
        <ele>15.4</ele>
        <time>2010-01-01T03:40:07Z</time>
      </trkpt>
      <trkpt lat="50.76493" lon="3.00377">
        <ele>14.8</ele>
        <time>2010-01-01T03:40:10Z</time>
      </trkpt>
      <trkpt lat="50.76494" lon="3.00369">
        <ele>14.5</ele>
        <time>2010-01-01T03:40:12Z</time>
      </trkpt>
      <trkpt lat="50.76493" lon="3.00362">
        <ele>14.3</ele>
        <time>2010-01-01T03:40:14Z</time>
      </trkpt>
      <trkpt lat="50.7647" lon="3.00301">
        <ele>14.8</ele>
        <time>2010-01-01T03:40:32Z</time>
      </trkpt>
      <trkpt lat="50.76443" lon="3.00225">
        <ele>15</ele>
        <time>2010-01-01T03:40:54Z</time>
      </trkpt>
      <trkpt lat="50.76413" lon="3.00143">
        <ele>14.3</ele>
        <time>2010-01-01T03:41:18Z</time>
      </trkpt>
      <trkpt lat="50.76387" lon="3.00075">
        <ele>14</ele>
        <time>2010-01-01T03:41:38Z</time>
      </trkpt>
      <trkpt lat="50.76378" lon="3.00056">
        <ele>14</ele>
        <time>2010-01-01T03:41:44Z</time>
      </trkpt>
      <trkpt lat="50.76367" lon="3.00037">
        <ele>13.9</ele>
        <time>2010-01-01T03:41:51Z</time>
      </trkpt>
      <trkpt lat="50.76298" lon="2.99857">
        <ele>14.4</ele>
        <time>2010-01-01T03:42:44Z</time>
      </trkpt>
      <trkpt lat="50.76227" lon="2.99676">
        <ele>13.7</ele>
        <time>2010-01-01T03:43:38Z</time>
      </trkpt>
      <trkpt lat="50.76222" lon="2.9967">
        <ele>14</ele>
        <time>2010-01-01T03:43:40Z</time>
      </trkpt>
      <trkpt lat="50.76181" lon="2.99589">
        <ele>14.4</ele>
        <time>2010-01-01T03:44:07Z</time>
      </trkpt>
      <trkpt lat="50.76137" lon="2.99514">
        <ele>13.5</ele>
        <time>2010-01-01T03:44:32Z</time>
      </trkpt>
      <trkpt lat="50.76093" lon="2.99429">
        <ele>14.5</ele>
        <time>2010-01-01T03:45:00Z</time>
      </trkpt>
      <trkpt lat="50.76048" lon="2.99337">
        <ele>15.3</ele>
        <time>2010-01-01T03:45:30Z</time>
      </trkpt>
      <trkpt lat="50.7602" lon="2.99261">
        <ele>14.7</ele>
        <time>2010-01-01T03:45:52Z</time>
      </trkpt>
      <trkpt lat="50.75979" lon="2.99129">
        <ele>14.3</ele>
        <time>2010-01-01T03:46:29Z</time>
      </trkpt>
      <trkpt lat="50.75957" lon="2.99044">
        <ele>14.7</ele>
        <time>2010-01-01T03:46:52Z</time>
      </trkpt>
      <trkpt lat="50.75921" lon="2.98938">
        <ele>14.2</ele>
        <time>2010-01-01T03:47:23Z</time>
      </trkpt>
      <trkpt lat="50.75901" lon="2.98884">
        <ele>14.4</ele>
        <time>2010-01-01T03:47:39Z</time>
      </trkpt>
      <trkpt lat="50.75836" lon="2.98745">
        <ele>14.4</ele>
        <time>2010-01-01T03:48:23Z</time>
      </trkpt>
      <trkpt lat="50.75815" lon="2.98704">
        <ele>14.6</ele>
        <time>2010-01-01T03:48:36Z</time>
      </trkpt>
      <trkpt lat="50.75796" lon="2.9866">
        <ele>14.2</ele>
        <time>2010-01-01T03:48:49Z</time>
      </trkpt>
      <trkpt lat="50.75787" lon="2.9862">
        <ele>13.9</ele>
        <time>2010-01-01T03:49:00Z</time>
      </trkpt>
      <trkpt lat="50.75774" lon="2.98438">
        <ele>14.1</ele>
        <time>2010-01-01T03:49:47Z</time>
      </trkpt>
      <trkpt lat="50.75775" lon="2.98421">
        <ele>14.7</ele>
        <time>2010-01-01T03:49:51Z</time>
      </trkpt>
      <trkpt lat="50.7577" lon="2.98397">
        <ele>14.1</ele>
        <time>2010-01-01T03:49:57Z</time>
      </trkpt>
      <trkpt lat="50.75765" lon="2.98387">
        <ele>14</ele>
        <time>2010-01-01T03:50:00Z</time>
      </trkpt>
      <trkpt lat="50.75752" lon="2.98374">
        <ele>14</ele>
        <time>2010-01-01T03:50:07Z</time>
      </trkpt>
      <trkpt lat="50.75736" lon="2.98356">
        <ele>14</ele>
        <time>2010-01-01T03:50:14Z</time>
      </trkpt>
      <trkpt lat="50.75712" lon="2.98333">
        <ele>14.7</ele>
        <time>2010-01-01T03:50:26Z</time>
      </trkpt>
      <trkpt lat="50.75708" lon="2.9833">
        <ele>15</ele>
        <time>2010-01-01T03:50:27Z</time>
      </trkpt>
      <trkpt lat="50.75708" lon="2.98326">
        <ele>15</ele>
        <time>2010-01-01T03:50:29Z</time>
      </trkpt>
      <trkpt lat="50.75684" lon="2.98186">
        <ele>14.9</ele>
        <time>2010-01-01T03:51:05Z</time>
      </trkpt>
      <trkpt lat="50.75655" lon="2.98098">
        <ele>14.2</ele>
        <time>2010-01-01T03:51:30Z</time>
      </trkpt>
      <trkpt lat="50.75607" lon="2.97951">
        <ele>14.2</ele>
        <time>2010-01-01T03:52:12Z</time>
      </trkpt>
      <trkpt lat="50.75523" lon="2.9772">
        <ele>14.5</ele>
        <time>2010-01-01T03:53:20Z</time>
      </trkpt>
      <trkpt lat="50.75356" lon="2.97271">
        <ele>15.5</ele>
        <time>2010-01-01T03:55:32Z</time>
      </trkpt>
      <trkpt lat="50.75323" lon="2.97182">
        <ele>15.8</ele>
        <time>2010-01-01T03:55:58Z</time>
      </trkpt>
      <trkpt lat="50.75253" lon="2.96979">
        <ele>15.5</ele>
        <time>2010-01-01T03:56:56Z</time>
      </trkpt>
      <trkpt lat="50.75209" lon="2.96805">
        <ele>16.4</ele>
        <time>2010-01-01T03:57:44Z</time>
      </trkpt>
      <trkpt lat="50.75197" lon="2.96747">
        <ele>15.7</ele>
        <time>2010-01-01T03:57:59Z</time>
      </trkpt>
      <trkpt lat="50.75175" lon="2.96615">
        <ele>16.2</ele>
        <time>2010-01-01T03:58:34Z</time>
      </trkpt>
      <trkpt lat="50.75136" lon="2.9634">
        <ele>14.8</ele>
        <time>2010-01-01T03:59:45Z</time>
      </trkpt>
      <trkpt lat="50.75103" lon="2.96118">
        <ele>14</ele>
        <time>2010-01-01T04:00:43Z</time>
      </trkpt>
      <trkpt lat="50.75058" lon="2.9583">
        <ele>14.9</ele>
        <time>2010-01-01T04:01:58Z</time>
      </trkpt>
      <trkpt lat="50.74987" lon="2.95351">
        <ele>14</ele>
        <time>2010-01-01T04:04:03Z</time>
      </trkpt>
      <trkpt lat="50.74961" lon="2.95183">
        <ele>14.8</ele>
        <time>2010-01-01T04:04:46Z</time>
      </trkpt>
      <trkpt lat="50.74935" lon="2.95026">
        <ele>14</ele>
        <time>2010-01-01T04:05:28Z</time>
      </trkpt>
      <trkpt lat="50.7492" lon="2.94953">
        <ele>14.6</ele>
        <time>2010-01-01T04:05:47Z</time>
      </trkpt>
      <trkpt lat="50.74888" lon="2.94832">
        <ele>14.9</ele>
        <time>2010-01-01T04:06:20Z</time>
      </trkpt>
      <trkpt lat="50.74869" lon="2.94771">
        <ele>14</ele>
        <time>2010-01-01T04:06:37Z</time>
      </trkpt>
      <trkpt lat="50.74847" lon="2.9472">
        <ele>14</ele>
        <time>2010-01-01T04:06:53Z</time>
      </trkpt>
      <trkpt lat="50.7481" lon="2.94651">
        <ele>14.5</ele>
        <time>2010-01-01T04:07:16Z</time>
      </trkpt>
      <trkpt lat="50.74774" lon="2.94586">
        <ele>14</ele>
        <time>2010-01-01T04:07:38Z</time>
      </trkpt>
      <trkpt lat="50.74749" lon="2.94532">
        <ele>14</ele>
        <time>2010-01-01T04:07:55Z</time>
      </trkpt>
      <trkpt lat="50.74692" lon="2.94396">
        <ele>14</ele>
        <time>2010-01-01T04:08:36Z</time>
      </trkpt>
      <trkpt lat="50.74664" lon="2.94345">
        <ele>14.4</ele>
        <time>2010-01-01T04:08:53Z</time>
      </trkpt>
      <trkpt lat="50.74647" lon="2.94321">
        <ele>14.7</ele>
        <time>2010-01-01T04:09:02Z</time>
      </trkpt>
      <trkpt lat="50.74596" lon="2.94258">
        <ele>14.8</ele>
        <time>2010-01-01T04:09:28Z</time>
      </trkpt>
      <trkpt lat="50.74538" lon="2.94196">
        <ele>14.7</ele>
        <time>2010-01-01T04:09:56Z</time>
      </trkpt>
      <trkpt lat="50.74481" lon="2.94142">
        <ele>14.7</ele>
        <time>2010-01-01T04:10:23Z</time>
      </trkpt>
      <trkpt lat="50.74431" lon="2.94101">
        <ele>14.5</ele>
        <time>2010-01-01T04:10:45Z</time>
      </trkpt>
      <trkpt lat="50.74393" lon="2.94073">
        <ele>14.1</ele>
        <time>2010-01-01T04:11:02Z</time>
      </trkpt>
      <trkpt lat="50.74362" lon="2.94054">
        <ele>14.9</ele>
        <time>2010-01-01T04:11:16Z</time>
      </trkpt>
      <trkpt lat="50.74295" lon="2.94017">
        <ele>14.4</ele>
        <time>2010-01-01T04:11:44Z</time>
      </trkpt>
      <trkpt lat="50.74229" lon="2.9399">
        <ele>14.2</ele>
        <time>2010-01-01T04:12:11Z</time>
      </trkpt>
      <trkpt lat="50.74165" lon="2.93972">
        <ele>14.9</ele>
        <time>2010-01-01T04:12:37Z</time>
      </trkpt>
      <trkpt lat="50.74124" lon="2.93962">
        <ele>14.3</ele>
        <time>2010-01-01T04:12:54Z</time>
      </trkpt>
      <trkpt lat="50.74084" lon="2.93957">
        <ele>14.5</ele>
        <time>2010-01-01T04:13:10Z</time>
      </trkpt>
      <trkpt lat="50.74022" lon="2.93952">
        <ele>14.3</ele>
        <time>2010-01-01T04:13:35Z</time>
      </trkpt>
      <trkpt lat="50.73982" lon="2.93954">
        <ele>14.6</ele>
        <time>2010-01-01T04:13:51Z</time>
      </trkpt>
      <trkpt lat="50.7395" lon="2.93956">
        <ele>14.8</ele>
        <time>2010-01-01T04:14:04Z</time>
      </trkpt>
      <trkpt lat="50.73913" lon="2.93962">
        <ele>15.2</ele>
        <time>2010-01-01T04:14:19Z</time>
      </trkpt>
      <trkpt lat="50.73862" lon="2.93973">
        <ele>15</ele>
        <time>2010-01-01T04:14:39Z</time>
      </trkpt>
      <trkpt lat="50.7381" lon="2.93988">
        <ele>14</ele>
        <time>2010-01-01T04:15:00Z</time>
      </trkpt>
      <trkpt lat="50.73769" lon="2.94004">
        <ele>14.6</ele>
        <time>2010-01-01T04:15:17Z</time>
      </trkpt>
      <trkpt lat="50.73617" lon="2.94093">
        <ele>14.6</ele>
        <time>2010-01-01T04:16:22Z</time>
      </trkpt>
      <trkpt lat="50.73603" lon="2.94106">
        <ele>14.6</ele>
        <time>2010-01-01T04:16:29Z</time>
      </trkpt>
      <trkpt lat="50.73591" lon="2.94127">
        <ele>14.7</ele>
        <time>2010-01-01T04:16:36Z</time>
      </trkpt>
      <trkpt lat="50.73572" lon="2.94185">
        <ele>14.6</ele>
        <time>2010-01-01T04:16:52Z</time>
      </trkpt>
      <trkpt lat="50.73568" lon="2.94198">
        <ele>14.5</ele>
        <time>2010-01-01T04:16:56Z</time>
      </trkpt>
      <trkpt lat="50.73554" lon="2.94211">
        <ele>14.5</ele>
        <time>2010-01-01T04:17:02Z</time>
      </trkpt>
      <trkpt lat="50.73538" lon="2.94231">
        <ele>13.8</ele>
        <time>2010-01-01T04:17:11Z</time>
      </trkpt>
      <trkpt lat="50.73521" lon="2.94264">
        <ele>13.8</ele>
        <time>2010-01-01T04:17:21Z</time>
      </trkpt>
      <trkpt lat="50.73513" lon="2.94307">
        <ele>14.5</ele>
        <time>2010-01-01T04:17:33Z</time>
      </trkpt>
      <trkpt lat="50.73511" lon="2.94362">
        <ele>14.4</ele>
        <time>2010-01-01T04:17:47Z</time>
      </trkpt>
      <trkpt lat="50.735" lon="2.94359">
        <ele>14</ele>
        <time>2010-01-01T04:17:51Z</time>
      </trkpt>
      <trkpt lat="50.73493" lon="2.94362">
        <ele>13.8</ele>
        <time>2010-01-01T04:17:54Z</time>
      </trkpt>
      <trkpt lat="50.73465" lon="2.94385">
        <ele>13.9</ele>
        <time>2010-01-01T04:18:07Z</time>
      </trkpt>
      <trkpt lat="50.73455" lon="2.94392">
        <ele>14.1</ele>
        <time>2010-01-01T04:18:11Z</time>
      </trkpt>
      <trkpt lat="50.73443" lon="2.94397">
        <ele>14.3</ele>
        <time>2010-01-01T04:18:16Z</time>
      </trkpt>
      <trkpt lat="50.73423" lon="2.94398">
        <ele>14.6</ele>
        <time>2010-01-01T04:18:24Z</time>
      </trkpt>
      <trkpt lat="50.73403" lon="2.94405">
        <ele>14.7</ele>
        <time>2010-01-01T04:18:32Z</time>
      </trkpt>
      <trkpt lat="50.73389" lon="2.94406">
        <ele>14.2</ele>
        <time>2010-01-01T04:18:38Z</time>
      </trkpt>
      <trkpt lat="50.73383" lon="2.94409">
        <ele>14.4</ele>
        <time>2010-01-01T04:18:40Z</time>
      </trkpt>
      <trkpt lat="50.73374" lon="2.94412">
        <ele>14.3</ele>
        <time>2010-01-01T04:18:44Z</time>
      </trkpt>
      <trkpt lat="50.73357" lon="2.94424">
        <ele>14.5</ele>
        <time>2010-01-01T04:18:52Z</time>
      </trkpt>
      <trkpt lat="50.73318" lon="2.94455">
        <ele>14.8</ele>
        <time>2010-01-01T04:19:09Z</time>
      </trkpt>
      <trkpt lat="50.73285" lon="2.94483">
        <ele>14.7</ele>
        <time>2010-01-01T04:19:24Z</time>
      </trkpt>
      <trkpt lat="50.7327" lon="2.94502">
        <ele>14.9</ele>
        <time>2010-01-01T04:19:32Z</time>
      </trkpt>
      <trkpt lat="50.73251" lon="2.94531">
        <ele>16.2</ele>
        <time>2010-01-01T04:19:42Z</time>
      </trkpt>
      <trkpt lat="50.73237" lon="2.9455">
        <ele>16.2</ele>
        <time>2010-01-01T04:19:50Z</time>
      </trkpt>
      <trkpt lat="50.73227" lon="2.94556">
        <ele>16.2</ele>
        <time>2010-01-01T04:19:54Z</time>
      </trkpt>
      <trkpt lat="50.73197" lon="2.94562">
        <ele>15.7</ele>
        <time>2010-01-01T04:20:06Z</time>
      </trkpt>
      <trkpt lat="50.73181" lon="2.9456">
        <ele>16</ele>
        <time>2010-01-01T04:20:12Z</time>
      </trkpt>
      <trkpt lat="50.73162" lon="2.94553">
        <ele>16.1</ele>
        <time>2010-01-01T04:20:20Z</time>
      </trkpt>
      <trkpt lat="50.73132" lon="2.94541">
        <ele>16.3</ele>
        <time>2010-01-01T04:20:33Z</time>
      </trkpt>
      <trkpt lat="50.73118" lon="2.94536">
        <ele>16.5</ele>
        <time>2010-01-01T04:20:38Z</time>
      </trkpt>
      <trkpt lat="50.73107" lon="2.94536">
        <ele>16.6</ele>
        <time>2010-01-01T04:20:43Z</time>
      </trkpt>
      <trkpt lat="50.73078" lon="2.94547">
        <ele>16.4</ele>
        <time>2010-01-01T04:20:55Z</time>
      </trkpt>
      <trkpt lat="50.73051" lon="2.94565">
        <ele>15.5</ele>
        <time>2010-01-01T04:21:07Z</time>
      </trkpt>
      <trkpt lat="50.73018" lon="2.94593">
        <ele>15.7</ele>
        <time>2010-01-01T04:21:21Z</time>
      </trkpt>
      <trkpt lat="50.7289" lon="2.94702">
        <ele>14.9</ele>
        <time>2010-01-01T04:22:20Z</time>
      </trkpt>
      <trkpt lat="50.7283" lon="2.94754">
        <ele>15.3</ele>
        <time>2010-01-01T04:22:47Z</time>
      </trkpt>
      <trkpt lat="50.72817" lon="2.94768">
        <ele>15.2</ele>
        <time>2010-01-01T04:22:53Z</time>
      </trkpt>
      <trkpt lat="50.72805" lon="2.94792">
        <ele>15</ele>
        <time>2010-01-01T04:23:01Z</time>
      </trkpt>
      <trkpt lat="50.72783" lon="2.94829">
        <ele>15.4</ele>
        <time>2010-01-01T04:23:14Z</time>
      </trkpt>
      <trkpt lat="50.72769" lon="2.94851">
        <ele>15.1</ele>
        <time>2010-01-01T04:23:22Z</time>
      </trkpt>
      <trkpt lat="50.72758" lon="2.94881">
        <ele>15</ele>
        <time>2010-01-01T04:23:31Z</time>
      </trkpt>
      <trkpt lat="50.72735" lon="2.94981">
        <ele>15.5</ele>
        <time>2010-01-01T04:23:58Z</time>
      </trkpt>
      <trkpt lat="50.72731" lon="2.95006">
        <ele>15.3</ele>
        <time>2010-01-01T04:24:04Z</time>
      </trkpt>
      <trkpt lat="50.72732" lon="2.95015">
        <ele>15.6</ele>
        <time>2010-01-01T04:24:07Z</time>
      </trkpt>
      <trkpt lat="50.7275" lon="2.95063">
        <ele>16</ele>
        <time>2010-01-01T04:24:21Z</time>
      </trkpt>
      <trkpt lat="50.72752" lon="2.95073">
        <ele>16.2</ele>
        <time>2010-01-01T04:24:23Z</time>
      </trkpt>
      <trkpt lat="50.72749" lon="2.95079">
        <ele>16</ele>
        <time>2010-01-01T04:24:25Z</time>
      </trkpt>
      <trkpt lat="50.72704" lon="2.95129">
        <ele>16.6</ele>
        <time>2010-01-01T04:24:47Z</time>
      </trkpt>
      <trkpt lat="50.72687" lon="2.95101">
        <ele>16.2</ele>
        <time>2010-01-01T04:24:57Z</time>
      </trkpt>
      <trkpt lat="50.72678" lon="2.95092">
        <ele>16.2</ele>
        <time>2010-01-01T04:25:01Z</time>
      </trkpt>
      <trkpt lat="50.72664" lon="2.95091">
        <ele>16.2</ele>
        <time>2010-01-01T04:25:07Z</time>
      </trkpt>
      <trkpt lat="50.72643" lon="2.95095">
        <ele>16.1</ele>
        <time>2010-01-01T04:25:15Z</time>
      </trkpt>
      <trkpt lat="50.72609" lon="2.95096">
        <ele>16</ele>
        <time>2010-01-01T04:25:29Z</time>
      </trkpt>
      <trkpt lat="50.72583" lon="2.9509">
        <ele>16.2</ele>
        <time>2010-01-01T04:25:40Z</time>
      </trkpt>
      <trkpt lat="50.72561" lon="2.95082">
        <ele>16</ele>
        <time>2010-01-01T04:25:49Z</time>
      </trkpt>
      <trkpt lat="50.72544" lon="2.95074">
        <ele>16</ele>
        <time>2010-01-01T04:25:56Z</time>
      </trkpt>
      <trkpt lat="50.72534" lon="2.95074">
        <ele>16</ele>
        <time>2010-01-01T04:26:00Z</time>
      </trkpt>
      <trkpt lat="50.72515" lon="2.95084">
        <ele>16</ele>
        <time>2010-01-01T04:26:08Z</time>
      </trkpt>
      <trkpt lat="50.72499" lon="2.95097">
        <ele>16.5</ele>
        <time>2010-01-01T04:26:15Z</time>
      </trkpt>
      <trkpt lat="50.72497" lon="2.951">
        <ele>16.5</ele>
        <time>2010-01-01T04:26:16Z</time>
      </trkpt>
      <trkpt lat="50.72497" lon="2.95103">
        <ele>16.6</ele>
        <time>2010-01-01T04:26:17Z</time>
      </trkpt>
      <trkpt lat="50.72492" lon="2.95104">
        <ele>16.5</ele>
        <time>2010-01-01T04:26:19Z</time>
      </trkpt>
      <trkpt lat="50.72492" lon="2.95108">
        <ele>16.6</ele>
        <time>2010-01-01T04:26:20Z</time>
      </trkpt>
      <trkpt lat="50.72482" lon="2.9514">
        <ele>18</ele>
        <time>2010-01-01T04:26:29Z</time>
      </trkpt>
      <trkpt lat="50.72486" lon="2.95151">
        <ele>17.8</ele>
        <time>2010-01-01T04:26:32Z</time>
      </trkpt>
      <trkpt lat="50.72482" lon="2.95154">
        <ele>17.6</ele>
        <time>2010-01-01T04:26:34Z</time>
      </trkpt>
      <trkpt lat="50.72467" lon="2.95163">
        <ele>16.7</ele>
        <time>2010-01-01T04:26:40Z</time>
      </trkpt>
      <trkpt lat="50.72455" lon="2.95172">
        <ele>15.9</ele>
        <time>2010-01-01T04:26:46Z</time>
      </trkpt>
      <trkpt lat="50.72444" lon="2.95184">
        <ele>15.6</ele>
        <time>2010-01-01T04:26:51Z</time>
      </trkpt>
      <trkpt lat="50.72434" lon="2.952">
        <ele>15.3</ele>
        <time>2010-01-01T04:26:57Z</time>
      </trkpt>
      <trkpt lat="50.72413" lon="2.95247">
        <ele>15.6</ele>
        <time>2010-01-01T04:27:11Z</time>
      </trkpt>
      <trkpt lat="50.72398" lon="2.95283">
        <ele>14.8</ele>
        <time>2010-01-01T04:27:22Z</time>
      </trkpt>
      <trkpt lat="50.72384" lon="2.95325">
        <ele>15.3</ele>
        <time>2010-01-01T04:27:34Z</time>
      </trkpt>
      <trkpt lat="50.72363" lon="2.95395">
        <ele>15.4</ele>
        <time>2010-01-01T04:27:54Z</time>
      </trkpt>
      <trkpt lat="50.72352" lon="2.95441">
        <ele>15.6</ele>
        <time>2010-01-01T04:28:06Z</time>
      </trkpt>
      <trkpt lat="50.72337" lon="2.95517">
        <ele>15.4</ele>
        <time>2010-01-01T04:28:26Z</time>
      </trkpt>
      <trkpt lat="50.72326" lon="2.95592">
        <ele>15.5</ele>
        <time>2010-01-01T04:28:46Z</time>
      </trkpt>
      <trkpt lat="50.72319" lon="2.95687">
        <ele>15.1</ele>
        <time>2010-01-01T04:29:10Z</time>
      </trkpt>
      <trkpt lat="50.72318" lon="2.95792">
        <ele>15.3</ele>
        <time>2010-01-01T04:29:37Z</time>
      </trkpt>
      <trkpt lat="50.72325" lon="2.96233">
        <ele>15.4</ele>
        <time>2010-01-01T04:31:29Z</time>
      </trkpt>
      <trkpt lat="50.72324" lon="2.96262">
        <ele>15.5</ele>
        <time>2010-01-01T04:31:36Z</time>
      </trkpt>
      <trkpt lat="50.7232" lon="2.96296">
        <ele>15.4</ele>
        <time>2010-01-01T04:31:45Z</time>
      </trkpt>
      <trkpt lat="50.72299" lon="2.96408">
        <ele>15.3</ele>
        <time>2010-01-01T04:32:14Z</time>
      </trkpt>
      <trkpt lat="50.72283" lon="2.96482">
        <ele>14.7</ele>
        <time>2010-01-01T04:32:34Z</time>
      </trkpt>
      <trkpt lat="50.72258" lon="2.96572">
        <ele>15.9</ele>
        <time>2010-01-01T04:32:59Z</time>
      </trkpt>
      <trkpt lat="50.72221" lon="2.96681">
        <ele>15.4</ele>
        <time>2010-01-01T04:33:30Z</time>
      </trkpt>
      <trkpt lat="50.72187" lon="2.9676">
        <ele>15.7</ele>
        <time>2010-01-01T04:33:55Z</time>
      </trkpt>
      <trkpt lat="50.72176" lon="2.9678">
        <ele>15.2</ele>
        <time>2010-01-01T04:34:01Z</time>
      </trkpt>
      <trkpt lat="50.72161" lon="2.96793">
        <ele>15.3</ele>
        <time>2010-01-01T04:34:08Z</time>
      </trkpt>
      <trkpt lat="50.7216" lon="2.96816">
        <ele>16.3</ele>
        <time>2010-01-01T04:34:14Z</time>
      </trkpt>
      <trkpt lat="50.721" lon="2.96935">
        <ele>16</ele>
        <time>2010-01-01T04:34:53Z</time>
      </trkpt>
      <trkpt lat="50.72009" lon="2.97118">
        <ele>15.6</ele>
        <time>2010-01-01T04:35:52Z</time>
      </trkpt>
      <trkpt lat="50.71982" lon="2.97171">
        <ele>14.9</ele>
        <time>2010-01-01T04:36:09Z</time>
      </trkpt>
      <trkpt lat="50.71958" lon="2.9722">
        <ele>15</ele>
        <time>2010-01-01T04:36:24Z</time>
      </trkpt>
      <trkpt lat="50.71902" lon="2.97355">
        <ele>14.9</ele>
        <time>2010-01-01T04:37:05Z</time>
      </trkpt>
      <trkpt lat="50.71876" lon="2.97424">
        <ele>15.2</ele>
        <time>2010-01-01T04:37:26Z</time>
      </trkpt>
      <trkpt lat="50.71869" lon="2.97447">
        <ele>15.3</ele>
        <time>2010-01-01T04:37:32Z</time>
      </trkpt>
      <trkpt lat="50.71843" lon="2.97525">
        <ele>14.7</ele>
        <time>2010-01-01T04:37:55Z</time>
      </trkpt>
      <trkpt lat="50.71807" lon="2.97654">
        <ele>15.6</ele>
        <time>2010-01-01T04:38:30Z</time>
      </trkpt>
      <trkpt lat="50.71729" lon="2.97976">
        <ele>14.6</ele>
        <time>2010-01-01T04:39:58Z</time>
      </trkpt>
      <trkpt lat="50.71627" lon="2.98418">
        <ele>12.9</ele>
        <time>2010-01-01T04:41:57Z</time>
      </trkpt>
      <trkpt lat="50.71572" lon="2.98656">
        <ele>13.1</ele>
        <time>2010-01-01T04:43:01Z</time>
      </trkpt>
      <trkpt lat="50.71549" lon="2.98742">
        <ele>14.5</ele>
        <time>2010-01-01T04:43:25Z</time>
      </trkpt>
      <trkpt lat="50.71501" lon="2.98886">
        <ele>14.8</ele>
        <time>2010-01-01T04:44:06Z</time>
      </trkpt>
      <trkpt lat="50.71399" lon="2.99167">
        <ele>15.2</ele>
        <time>2010-01-01T04:45:28Z</time>
      </trkpt>
      <trkpt lat="50.71391" lon="2.99171">
        <ele>14</ele>
        <time>2010-01-01T04:45:31Z</time>
      </trkpt>
      <trkpt lat="50.71376" lon="2.99175">
        <ele>12.7</ele>
        <time>2010-01-01T04:45:38Z</time>
      </trkpt>
      <trkpt lat="50.71372" lon="2.99177">
        <ele>12.4</ele>
        <time>2010-01-01T04:45:39Z</time>
      </trkpt>
      <trkpt lat="50.71369" lon="2.99184">
        <ele>12.3</ele>
        <time>2010-01-01T04:45:41Z</time>
      </trkpt>
      <trkpt lat="50.71364" lon="2.99194">
        <ele>11.6</ele>
        <time>2010-01-01T04:45:45Z</time>
      </trkpt>
      <trkpt lat="50.71363" lon="2.99217">
        <ele>13</ele>
        <time>2010-01-01T04:45:50Z</time>
      </trkpt>
      <trkpt lat="50.71341" lon="2.99288">
        <ele>13.3</ele>
        <time>2010-01-01T04:46:10Z</time>
      </trkpt>
      <trkpt lat="50.71339" lon="2.99304">
        <ele>13.4</ele>
        <time>2010-01-01T04:46:15Z</time>
      </trkpt>
      <trkpt lat="50.71324" lon="2.99337">
        <ele>14.8</ele>
        <time>2010-01-01T04:46:25Z</time>
      </trkpt>
      <trkpt lat="50.71282" lon="2.99422">
        <ele>13.3</ele>
        <time>2010-01-01T04:46:52Z</time>
      </trkpt>
      <trkpt lat="50.7116" lon="2.99658">
        <ele>12.7</ele>
        <time>2010-01-01T04:48:09Z</time>
      </trkpt>
      <trkpt lat="50.71143" lon="2.997">
        <ele>12</ele>
        <time>2010-01-01T04:48:22Z</time>
      </trkpt>
      <trkpt lat="50.71127" lon="2.99731">
        <ele>12.9</ele>
        <time>2010-01-01T04:48:32Z</time>
      </trkpt>
      <trkpt lat="50.7111" lon="2.99746">
        <ele>12.5</ele>
        <time>2010-01-01T04:48:40Z</time>
      </trkpt>
      <trkpt lat="50.71102" lon="2.99764">
        <ele>13</ele>
        <time>2010-01-01T04:48:46Z</time>
      </trkpt>
      <trkpt lat="50.71097" lon="2.99785">
        <ele>13.6</ele>
        <time>2010-01-01T04:48:51Z</time>
      </trkpt>
      <trkpt lat="50.71126" lon="2.9981">
        <ele>17.4</ele>
        <time>2010-01-01T04:49:05Z</time>
      </trkpt>
      <trkpt lat="50.71128" lon="2.99811">
        <ele>17.3</ele>
        <time>2010-01-01T04:49:05Z</time>
      </trkpt>
      <trkpt lat="50.71117" lon="2.99833">
        <ele>17</ele>
        <time>2010-01-01T04:49:12Z</time>
      </trkpt>
      <trkpt lat="50.71097" lon="2.99887">
        <ele>16.5</ele>
        <time>2010-01-01T04:49:28Z</time>
      </trkpt>
      <trkpt lat="50.7109" lon="2.9991">
        <ele>15.7</ele>
        <time>2010-01-01T04:49:35Z</time>
      </trkpt>
      <trkpt lat="50.71081" lon="2.99916">
        <ele>14.6</ele>
        <time>2010-01-01T04:49:39Z</time>
      </trkpt>
      <trkpt lat="50.71059" lon="3.00086">
        <ele>13.3</ele>
        <time>2010-01-01T04:50:23Z</time>
      </trkpt>
      <trkpt lat="50.71061" lon="3.00105">
        <ele>14</ele>
        <time>2010-01-01T04:50:28Z</time>
      </trkpt>
      <trkpt lat="50.71068" lon="3.00136">
        <ele>14</ele>
        <time>2010-01-01T04:50:36Z</time>
      </trkpt>
      <trkpt lat="50.71077" lon="3.0016">
        <ele>14.5</ele>
        <time>2010-01-01T04:50:43Z</time>
      </trkpt>
      <trkpt lat="50.71078" lon="3.00168">
        <ele>14.6</ele>
        <time>2010-01-01T04:50:45Z</time>
      </trkpt>
      <trkpt lat="50.71076" lon="3.00199">
        <ele>14.3</ele>
        <time>2010-01-01T04:50:53Z</time>
      </trkpt>
      <trkpt lat="50.71073" lon="3.00215">
        <ele>14.2</ele>
        <time>2010-01-01T04:50:57Z</time>
      </trkpt>
      <trkpt lat="50.71061" lon="3.00248">
        <ele>14.3</ele>
        <time>2010-01-01T04:51:07Z</time>
      </trkpt>
      <trkpt lat="50.7104" lon="3.003">
        <ele>13.8</ele>
        <time>2010-01-01T04:51:22Z</time>
      </trkpt>
      <trkpt lat="50.71033" lon="3.00319">
        <ele>13.5</ele>
        <time>2010-01-01T04:51:28Z</time>
      </trkpt>
      <trkpt lat="50.71027" lon="3.00348">
        <ele>14</ele>
        <time>2010-01-01T04:51:36Z</time>
      </trkpt>
      <trkpt lat="50.71018" lon="3.00383">
        <ele>13.8</ele>
        <time>2010-01-01T04:51:45Z</time>
      </trkpt>
      <trkpt lat="50.70997" lon="3.00457">
        <ele>14.5</ele>
        <time>2010-01-01T04:52:06Z</time>
      </trkpt>
      <trkpt lat="50.71015" lon="3.00524">
        <ele>15.1</ele>
        <time>2010-01-01T04:52:24Z</time>
      </trkpt>
      <trkpt lat="50.71016" lon="3.00532">
        <ele>15.2</ele>
        <time>2010-01-01T04:52:26Z</time>
      </trkpt>
      <trkpt lat="50.70994" lon="3.00608">
        <ele>14.5</ele>
        <time>2010-01-01T04:52:48Z</time>
      </trkpt>
      <trkpt lat="50.70975" lon="3.00664">
        <ele>15.1</ele>
        <time>2010-01-01T04:53:04Z</time>
      </trkpt>
      <trkpt lat="50.70971" lon="3.00667">
        <ele>14.9</ele>
        <time>2010-01-01T04:53:05Z</time>
      </trkpt>
      <trkpt lat="50.70967" lon="3.00665">
        <ele>14.4</ele>
        <time>2010-01-01T04:53:07Z</time>
      </trkpt>
      <trkpt lat="50.70955" lon="3.00658">
        <ele>12.4</ele>
        <time>2010-01-01T04:53:12Z</time>
      </trkpt>
      <trkpt lat="50.70952" lon="3.00661">
        <ele>12.2</ele>
        <time>2010-01-01T04:53:14Z</time>
      </trkpt>
      <trkpt lat="50.7095" lon="3.00669">
        <ele>12.8</ele>
        <time>2010-01-01T04:53:16Z</time>
      </trkpt>
      <trkpt lat="50.7095" lon="3.00678">
        <ele>13.3</ele>
        <time>2010-01-01T04:53:18Z</time>
      </trkpt>
      <trkpt lat="50.70957" lon="3.00686">
        <ele>14.4</ele>
        <time>2010-01-01T04:53:22Z</time>
      </trkpt>
      <trkpt lat="50.7096" lon="3.00698">
        <ele>15.1</ele>
        <time>2010-01-01T04:53:25Z</time>
      </trkpt>
      <trkpt lat="50.70958" lon="3.00706">
        <ele>15</ele>
        <time>2010-01-01T04:53:27Z</time>
      </trkpt>
      <trkpt lat="50.70934" lon="3.00756">
        <ele>14.7</ele>
        <time>2010-01-01T04:53:43Z</time>
      </trkpt>
      <trkpt lat="50.70927" lon="3.00762">
        <ele>14.3</ele>
        <time>2010-01-01T04:53:46Z</time>
      </trkpt>
      <trkpt lat="50.70915" lon="3.00776">
        <ele>14.5</ele>
        <time>2010-01-01T04:53:52Z</time>
      </trkpt>
      <trkpt lat="50.70879" lon="3.00855">
        <ele>15.3</ele>
        <time>2010-01-01T04:54:17Z</time>
      </trkpt>
      <trkpt lat="50.7085" lon="3.00906">
        <ele>16.7</ele>
        <time>2010-01-01T04:54:34Z</time>
      </trkpt>
      <trkpt lat="50.70821" lon="3.00941">
        <ele>14</ele>
        <time>2010-01-01T04:54:49Z</time>
      </trkpt>
      <trkpt lat="50.70805" lon="3.00956">
        <ele>12.6</ele>
        <time>2010-01-01T04:54:56Z</time>
      </trkpt>
      <trkpt lat="50.70786" lon="3.00968">
        <ele>11.8</ele>
        <time>2010-01-01T04:55:04Z</time>
      </trkpt>
      <trkpt lat="50.70765" lon="3.00986">
        <ele>12.8</ele>
        <time>2010-01-01T04:55:14Z</time>
      </trkpt>
      <trkpt lat="50.7075" lon="3.01007">
        <ele>13.5</ele>
        <time>2010-01-01T04:55:22Z</time>
      </trkpt>
      <trkpt lat="50.70713" lon="3.01076">
        <ele>15.5</ele>
        <time>2010-01-01T04:55:45Z</time>
      </trkpt>
      <trkpt lat="50.70709" lon="3.01081">
        <ele>15.8</ele>
        <time>2010-01-01T04:55:47Z</time>
      </trkpt>
      <trkpt lat="50.70702" lon="3.01084">
        <ele>15.6</ele>
        <time>2010-01-01T04:55:50Z</time>
      </trkpt>
      <trkpt lat="50.70693" lon="3.01081">
        <ele>14.6</ele>
        <time>2010-01-01T04:55:54Z</time>
      </trkpt>
      <trkpt lat="50.70679" lon="3.01092">
        <ele>13.3</ele>
        <time>2010-01-01T04:56:00Z</time>
      </trkpt>
      <trkpt lat="50.7065" lon="3.01127">
        <ele>12.9</ele>
        <time>2010-01-01T04:56:14Z</time>
      </trkpt>
      <trkpt lat="50.70616" lon="3.01167">
        <ele>13.4</ele>
        <time>2010-01-01T04:56:31Z</time>
      </trkpt>
      <trkpt lat="50.70599" lon="3.01178">
        <ele>13.4</ele>
        <time>2010-01-01T04:56:39Z</time>
      </trkpt>
      <trkpt lat="50.70564" lon="3.01215">
        <ele>13.5</ele>
        <time>2010-01-01T04:56:56Z</time>
      </trkpt>
      <trkpt lat="50.7055" lon="3.01231">
        <ele>13.7</ele>
        <time>2010-01-01T04:57:03Z</time>
      </trkpt>
      <trkpt lat="50.70537" lon="3.0125">
        <ele>13.7</ele>
        <time>2010-01-01T04:57:10Z</time>
      </trkpt>
      <trkpt lat="50.70524" lon="3.0126">
        <ele>12.8</ele>
        <time>2010-01-01T04:57:15Z</time>
      </trkpt>
      <trkpt lat="50.70518" lon="3.01266">
        <ele>12.8</ele>
        <time>2010-01-01T04:57:18Z</time>
      </trkpt>
      <trkpt lat="50.70517" lon="3.01274">
        <ele>13.2</ele>
        <time>2010-01-01T04:57:20Z</time>
      </trkpt>
      <trkpt lat="50.70499" lon="3.01316">
        <ele>14.6</ele>
        <time>2010-01-01T04:57:33Z</time>
      </trkpt>
      <trkpt lat="50.70425" lon="3.01401">
        <ele>16.6</ele>
        <time>2010-01-01T04:58:10Z</time>
      </trkpt>
      <trkpt lat="50.70397" lon="3.01428">
        <ele>16.6</ele>
        <time>2010-01-01T04:58:23Z</time>
      </trkpt>
      <trkpt lat="50.70261" lon="3.01595">
        <ele>16</ele>
        <time>2010-01-01T04:59:32Z</time>
      </trkpt>
      <trkpt lat="50.70139" lon="3.0174">
        <ele>16</ele>
        <time>2010-01-01T05:00:33Z</time>
      </trkpt>
      <trkpt lat="50.70073" lon="3.0182">
        <ele>16</ele>
        <time>2010-01-01T05:01:06Z</time>
      </trkpt>
      <trkpt lat="50.70053" lon="3.01844">
        <ele>16.4</ele>
        <time>2010-01-01T05:01:16Z</time>
      </trkpt>
      <trkpt lat="50.70042" lon="3.01863">
        <ele>17</ele>
        <time>2010-01-01T05:01:23Z</time>
      </trkpt>
      <trkpt lat="50.70009" lon="3.01921">
        <ele>17.4</ele>
        <time>2010-01-01T05:01:43Z</time>
      </trkpt>
      <trkpt lat="50.69967" lon="3.01993">
        <ele>16.8</ele>
        <time>2010-01-01T05:02:08Z</time>
      </trkpt>
      <trkpt lat="50.6996" lon="3.02013">
        <ele>16.8</ele>
        <time>2010-01-01T05:02:13Z</time>
      </trkpt>
      <trkpt lat="50.69961" lon="3.02038">
        <ele>17.3</ele>
        <time>2010-01-01T05:02:20Z</time>
      </trkpt>
      <trkpt lat="50.69962" lon="3.02042">
        <ele>17.5</ele>
        <time>2010-01-01T05:02:21Z</time>
      </trkpt>
      <trkpt lat="50.69961" lon="3.02038">
        <ele>17.3</ele>
        <time>2010-01-01T05:02:22Z</time>
      </trkpt>
      <trkpt lat="50.69948" lon="3.02055">
        <ele>17.1</ele>
        <time>2010-01-01T05:02:29Z</time>
      </trkpt>
      <trkpt lat="50.69928" lon="3.02078">
        <ele>16.6</ele>
        <time>2010-01-01T05:02:39Z</time>
      </trkpt>
      <trkpt lat="50.69919" lon="3.02081">
        <ele>16.8</ele>
        <time>2010-01-01T05:02:42Z</time>
      </trkpt>
      <trkpt lat="50.69913" lon="3.02082">
        <ele>17</ele>
        <time>2010-01-01T05:02:45Z</time>
      </trkpt>
      <trkpt lat="50.69895" lon="3.02081">
        <ele>16.9</ele>
        <time>2010-01-01T05:02:52Z</time>
      </trkpt>
      <trkpt lat="50.69885" lon="3.02078">
        <ele>16.7</ele>
        <time>2010-01-01T05:02:56Z</time>
      </trkpt>
      <trkpt lat="50.69877" lon="3.02079">
        <ele>16.4</ele>
        <time>2010-01-01T05:02:59Z</time>
      </trkpt>
      <trkpt lat="50.69871" lon="3.02082">
        <ele>16.3</ele>
        <time>2010-01-01T05:03:02Z</time>
      </trkpt>
      <trkpt lat="50.69861" lon="3.02095">
        <ele>16.8</ele>
        <time>2010-01-01T05:03:07Z</time>
      </trkpt>
      <trkpt lat="50.69816" lon="3.02181">
        <ele>16.4</ele>
        <time>2010-01-01T05:03:35Z</time>
      </trkpt>
      <trkpt lat="50.69786" lon="3.02248">
        <ele>15.7</ele>
        <time>2010-01-01T05:03:56Z</time>
      </trkpt>
      <trkpt lat="50.69782" lon="3.02257">
        <ele>15.8</ele>
        <time>2010-01-01T05:03:59Z</time>
      </trkpt>
      <trkpt lat="50.6976" lon="3.02325">
        <ele>16.4</ele>
        <time>2010-01-01T05:04:18Z</time>
      </trkpt>
      <trkpt lat="50.6974" lon="3.024">
        <ele>16.9</ele>
        <time>2010-01-01T05:04:39Z</time>
      </trkpt>
      <trkpt lat="50.69716" lon="3.02508">
        <ele>16</ele>
        <time>2010-01-01T05:05:08Z</time>
      </trkpt>
      <trkpt lat="50.69706" lon="3.02561">
        <ele>15.8</ele>
        <time>2010-01-01T05:05:22Z</time>
      </trkpt>
      <trkpt lat="50.69692" lon="3.0263">
        <ele>15.9</ele>
        <time>2010-01-01T05:05:40Z</time>
      </trkpt>
      <trkpt lat="50.69683" lon="3.02706">
        <ele>16.2</ele>
        <time>2010-01-01T05:06:00Z</time>
      </trkpt>
      <trkpt lat="50.6967" lon="3.02805">
        <ele>16.2</ele>
        <time>2010-01-01T05:06:25Z</time>
      </trkpt>
      <trkpt lat="50.69653" lon="3.02879">
        <ele>16.5</ele>
        <time>2010-01-01T05:06:45Z</time>
      </trkpt>
      <trkpt lat="50.69622" lon="3.03">
        <ele>16.8</ele>
        <time>2010-01-01T05:07:18Z</time>
      </trkpt>
      <trkpt lat="50.69618" lon="3.03012">
        <ele>16.8</ele>
        <time>2010-01-01T05:07:22Z</time>
      </trkpt>
      <trkpt lat="50.69607" lon="3.03029">
        <ele>16.9</ele>
        <time>2010-01-01T05:07:28Z</time>
      </trkpt>
      <trkpt lat="50.69589" lon="3.03065">
        <ele>16.5</ele>
        <time>2010-01-01T05:07:40Z</time>
      </trkpt>
      <trkpt lat="50.69542" lon="3.03206">
        <ele>16.5</ele>
        <time>2010-01-01T05:08:20Z</time>
      </trkpt>
      <trkpt lat="50.69493" lon="3.03344">
        <ele>17.3</ele>
        <time>2010-01-01T05:09:00Z</time>
      </trkpt>
      <trkpt lat="50.69454" lon="3.03458">
        <ele>17</ele>
        <time>2010-01-01T05:09:33Z</time>
      </trkpt>
      <trkpt lat="50.69411" lon="3.03614">
        <ele>16.8</ele>
        <time>2010-01-01T05:10:16Z</time>
      </trkpt>
      <trkpt lat="50.69393" lon="3.0368">
        <ele>16.7</ele>
        <time>2010-01-01T05:10:34Z</time>
      </trkpt>
      <trkpt lat="50.69382" lon="3.03735">
        <ele>17.1</ele>
        <time>2010-01-01T05:10:49Z</time>
      </trkpt>
      <trkpt lat="50.69348" lon="3.03901">
        <ele>17.1</ele>
        <time>2010-01-01T05:11:33Z</time>
      </trkpt>
      <trkpt lat="50.69323" lon="3.04051">
        <ele>17.2</ele>
        <time>2010-01-01T05:12:13Z</time>
      </trkpt>
      <trkpt lat="50.69296" lon="3.04257">
        <ele>16.6</ele>
        <time>2010-01-01T05:13:06Z</time>
      </trkpt>
      <trkpt lat="50.69288" lon="3.04343">
        <ele>16.5</ele>
        <time>2010-01-01T05:13:28Z</time>
      </trkpt>
      <trkpt lat="50.69279" lon="3.04455">
        <ele>17.1</ele>
        <time>2010-01-01T05:13:57Z</time>
      </trkpt>
      <trkpt lat="50.69284" lon="3.04478">
        <ele>17.4</ele>
        <time>2010-01-01T05:14:03Z</time>
      </trkpt>
      <trkpt lat="50.69295" lon="3.04504">
        <ele>18.2</ele>
        <time>2010-01-01T05:14:11Z</time>
      </trkpt>
      <trkpt lat="50.69292" lon="3.04551">
        <ele>18</ele>
        <time>2010-01-01T05:14:23Z</time>
      </trkpt>
      <trkpt lat="50.69292" lon="3.04555">
        <ele>18</ele>
        <time>2010-01-01T05:14:24Z</time>
      </trkpt>
      <trkpt lat="50.69291" lon="3.04581">
        <ele>18</ele>
        <time>2010-01-01T05:14:30Z</time>
      </trkpt>
      <trkpt lat="50.69287" lon="3.04587">
        <ele>17.7</ele>
        <time>2010-01-01T05:14:32Z</time>
      </trkpt>
      <trkpt lat="50.69276" lon="3.046">
        <ele>17</ele>
        <time>2010-01-01T05:14:38Z</time>
      </trkpt>
      <trkpt lat="50.69272" lon="3.0461">
        <ele>16.8</ele>
        <time>2010-01-01T05:14:41Z</time>
      </trkpt>
      <trkpt lat="50.69272" lon="3.0462">
        <ele>16.8</ele>
        <time>2010-01-01T05:14:43Z</time>
      </trkpt>
      <trkpt lat="50.69273" lon="3.04645">
        <ele>16.8</ele>
        <time>2010-01-01T05:14:50Z</time>
      </trkpt>
      <trkpt lat="50.69274" lon="3.04683">
        <ele>16.8</ele>
        <time>2010-01-01T05:14:59Z</time>
      </trkpt>
      <trkpt lat="50.69275" lon="3.04707">
        <ele>16.9</ele>
        <time>2010-01-01T05:15:06Z</time>
      </trkpt>
      <trkpt lat="50.69272" lon="3.04725">
        <ele>17</ele>
        <time>2010-01-01T05:15:10Z</time>
      </trkpt>
      <trkpt lat="50.69252" lon="3.0482">
        <ele>17.6</ele>
        <time>2010-01-01T05:15:36Z</time>
      </trkpt>
      <trkpt lat="50.69233" lon="3.04905">
        <ele>17.4</ele>
        <time>2010-01-01T05:15:59Z</time>
      </trkpt>
      <trkpt lat="50.69225" lon="3.04941">
        <ele>17.2</ele>
        <time>2010-01-01T05:16:08Z</time>
      </trkpt>
      <trkpt lat="50.69218" lon="3.04961">
        <ele>17.4</ele>
        <time>2010-01-01T05:16:14Z</time>
      </trkpt>
      <trkpt lat="50.69192" lon="3.05017">
        <ele>17.1</ele>
        <time>2010-01-01T05:16:32Z</time>
      </trkpt>
      <trkpt lat="50.69167" lon="3.05071">
        <ele>17.6</ele>
        <time>2010-01-01T05:16:49Z</time>
      </trkpt>
      <trkpt lat="50.69145" lon="3.05101">
        <ele>17.4</ele>
        <time>2010-01-01T05:17:00Z</time>
      </trkpt>
      <trkpt lat="50.69102" lon="3.05142">
        <ele>16.8</ele>
        <time>2010-01-01T05:17:20Z</time>
      </trkpt>
      <trkpt lat="50.69087" lon="3.05156">
        <ele>16.7</ele>
        <time>2010-01-01T05:17:27Z</time>
      </trkpt>
      <trkpt lat="50.69059" lon="3.05192">
        <ele>17</ele>
        <time>2010-01-01T05:17:42Z</time>
      </trkpt>
      <trkpt lat="50.69004" lon="3.05259">
        <ele>16.1</ele>
        <time>2010-01-01T05:18:10Z</time>
      </trkpt>
      <trkpt lat="50.68977" lon="3.0529">
        <ele>16.1</ele>
        <time>2010-01-01T05:18:23Z</time>
      </trkpt>
      <trkpt lat="50.6896" lon="3.05306">
        <ele>16.6</ele>
        <time>2010-01-01T05:18:31Z</time>
      </trkpt>
      <trkpt lat="50.68937" lon="3.05335">
        <ele>17.1</ele>
        <time>2010-01-01T05:18:43Z</time>
      </trkpt>
      <trkpt lat="50.68927" lon="3.05339">
        <ele>17.2</ele>
        <time>2010-01-01T05:18:47Z</time>
      </trkpt>
      <trkpt lat="50.68912" lon="3.05343">
        <ele>16.9</ele>
        <time>2010-01-01T05:18:53Z</time>
      </trkpt>
      <trkpt lat="50.68897" lon="3.05354">
        <ele>16.8</ele>
        <time>2010-01-01T05:18:59Z</time>
      </trkpt>
      <trkpt lat="50.68863" lon="3.05393">
        <ele>16.4</ele>
        <time>2010-01-01T05:19:16Z</time>
      </trkpt>
      <trkpt lat="50.68839" lon="3.05427">
        <ele>16.7</ele>
        <time>2010-01-01T05:19:29Z</time>
      </trkpt>
      <trkpt lat="50.68809" lon="3.05455">
        <ele>16.5</ele>
        <time>2010-01-01T05:19:43Z</time>
      </trkpt>
      <trkpt lat="50.68798" lon="3.05463">
        <ele>16.2</ele>
        <time>2010-01-01T05:19:48Z</time>
      </trkpt>
      <trkpt lat="50.6877" lon="3.05496">
        <ele>16.5</ele>
        <time>2010-01-01T05:20:02Z</time>
      </trkpt>
      <trkpt lat="50.68708" lon="3.05581">
        <ele>16.4</ele>
        <time>2010-01-01T05:20:35Z</time>
      </trkpt>
      <trkpt lat="50.68664" lon="3.0565">
        <ele>15.7</ele>
        <time>2010-01-01T05:21:00Z</time>
      </trkpt>
      <trkpt lat="50.68648" lon="3.0569">
        <ele>16.2</ele>
        <time>2010-01-01T05:21:12Z</time>
      </trkpt>
      <trkpt lat="50.68643" lon="3.0571">
        <ele>16.5</ele>
        <time>2010-01-01T05:21:17Z</time>
      </trkpt>
      <trkpt lat="50.68633" lon="3.05727">
        <ele>16.7</ele>
        <time>2010-01-01T05:21:23Z</time>
      </trkpt>
      <trkpt lat="50.68594" lon="3.05783">
        <ele>16.3</ele>
        <time>2010-01-01T05:21:44Z</time>
      </trkpt>
      <trkpt lat="50.68581" lon="3.05802">
        <ele>17.4</ele>
        <time>2010-01-01T05:21:51Z</time>
      </trkpt>
      <trkpt lat="50.68571" lon="3.05811">
        <ele>17.1</ele>
        <time>2010-01-01T05:21:56Z</time>
      </trkpt>
      <trkpt lat="50.68547" lon="3.05818">
        <ele>16</ele>
        <time>2010-01-01T05:22:06Z</time>
      </trkpt>
      <trkpt lat="50.6854" lon="3.05828">
        <ele>16.9</ele>
        <time>2010-01-01T05:22:09Z</time>
      </trkpt>
      <trkpt lat="50.685" lon="3.05868">
        <ele>18.5</ele>
        <time>2010-01-01T05:22:28Z</time>
      </trkpt>
      <trkpt lat="50.68461" lon="3.05896">
        <ele>18.4</ele>
        <time>2010-01-01T05:22:46Z</time>
      </trkpt>
      <trkpt lat="50.68413" lon="3.05931">
        <ele>17.7</ele>
        <time>2010-01-01T05:23:07Z</time>
      </trkpt>
      <trkpt lat="50.68376" lon="3.05953">
        <ele>17</ele>
        <time>2010-01-01T05:23:22Z</time>
      </trkpt>
      <trkpt lat="50.68314" lon="3.0598">
        <ele>16.9</ele>
        <time>2010-01-01T05:23:48Z</time>
      </trkpt>
      <trkpt lat="50.68253" lon="3.06">
        <ele>17.1</ele>
        <time>2010-01-01T05:24:13Z</time>
      </trkpt>
      <trkpt lat="50.68212" lon="3.06005">
        <ele>16.5</ele>
        <time>2010-01-01T05:24:30Z</time>
      </trkpt>
      <trkpt lat="50.68182" lon="3.06004">
        <ele>17.2</ele>
        <time>2010-01-01T05:24:42Z</time>
      </trkpt>
      <trkpt lat="50.68176" lon="3.06005">
        <ele>17.6</ele>
        <time>2010-01-01T05:24:44Z</time>
      </trkpt>
      <trkpt lat="50.68153" lon="3.06005">
        <ele>17.7</ele>
        <time>2010-01-01T05:24:53Z</time>
      </trkpt>
      <trkpt lat="50.68067" lon="3.05989">
        <ele>17.8</ele>
        <time>2010-01-01T05:25:28Z</time>
      </trkpt>
      <trkpt lat="50.68062" lon="3.05992">
        <ele>18.1</ele>
        <time>2010-01-01T05:25:30Z</time>
      </trkpt>
      <trkpt lat="50.68059" lon="3.05994">
        <ele>18.4</ele>
        <time>2010-01-01T05:25:31Z</time>
      </trkpt>
      <trkpt lat="50.68054" lon="3.05995">
        <ele>18.5</ele>
        <time>2010-01-01T05:25:33Z</time>
      </trkpt>
      <trkpt lat="50.67999" lon="3.05983">
        <ele>17.8</ele>
        <time>2010-01-01T05:25:56Z</time>
      </trkpt>
      <trkpt lat="50.67959" lon="3.05978">
        <ele>17.5</ele>
        <time>2010-01-01T05:26:12Z</time>
      </trkpt>
      <trkpt lat="50.67881" lon="3.05978">
        <ele>17.6</ele>
        <time>2010-01-01T05:26:43Z</time>
      </trkpt>
      <trkpt lat="50.67866" lon="3.05976">
        <ele>17.4</ele>
        <time>2010-01-01T05:26:49Z</time>
      </trkpt>
      <trkpt lat="50.67862" lon="3.05971">
        <ele>16.9</ele>
        <time>2010-01-01T05:26:51Z</time>
      </trkpt>
      <trkpt lat="50.67852" lon="3.05973">
        <ele>16.8</ele>
        <time>2010-01-01T05:26:55Z</time>
      </trkpt>
      <trkpt lat="50.67799" lon="3.05992">
        <ele>17.3</ele>
        <time>2010-01-01T05:27:17Z</time>
      </trkpt>
      <trkpt lat="50.67725" lon="3.06013">
        <ele>16.9</ele>
        <time>2010-01-01T05:27:47Z</time>
      </trkpt>
      <trkpt lat="50.67682" lon="3.06027">
        <ele>16.5</ele>
        <time>2010-01-01T05:28:04Z</time>
      </trkpt>
      <trkpt lat="50.67646" lon="3.06042">
        <ele>16.6</ele>
        <time>2010-01-01T05:28:19Z</time>
      </trkpt>
      <trkpt lat="50.67572" lon="3.06076">
        <ele>16.7</ele>
        <time>2010-01-01T05:28:50Z</time>
      </trkpt>
      <trkpt lat="50.67552" lon="3.06082">
        <ele>17</ele>
        <time>2010-01-01T05:28:58Z</time>
      </trkpt>
      <trkpt lat="50.67549" lon="3.06084">
        <ele>17</ele>
        <time>2010-01-01T05:29:00Z</time>
      </trkpt>
      <trkpt lat="50.67547" lon="3.0609">
        <ele>17</ele>
        <time>2010-01-01T05:29:01Z</time>
      </trkpt>
      <trkpt lat="50.67548" lon="3.061">
        <ele>17</ele>
        <time>2010-01-01T05:29:04Z</time>
      </trkpt>
      <trkpt lat="50.67549" lon="3.06107">
        <ele>17</ele>
        <time>2010-01-01T05:29:06Z</time>
      </trkpt>
      <trkpt lat="50.67563" lon="3.06098">
        <ele>17.1</ele>
        <time>2010-01-01T05:29:12Z</time>
      </trkpt>
      <trkpt lat="50.67576" lon="3.06094">
        <ele>17.3</ele>
        <time>2010-01-01T05:29:17Z</time>
      </trkpt>
      <trkpt lat="50.67602" lon="3.06092">
        <ele>17.3</ele>
        <time>2010-01-01T05:29:28Z</time>
      </trkpt>
      <trkpt lat="50.67609" lon="3.06091">
        <ele>17.3</ele>
        <time>2010-01-01T05:29:30Z</time>
      </trkpt>
      <trkpt lat="50.67639" lon="3.0608">
        <ele>17.9</ele>
        <time>2010-01-01T05:29:43Z</time>
      </trkpt>
      <trkpt lat="50.67752" lon="3.0603">
        <ele>18.3</ele>
        <time>2010-01-01T05:30:30Z</time>
      </trkpt>
      <trkpt lat="50.67753" lon="3.06031">
        <ele>18.4</ele>
        <time>2010-01-01T05:30:30Z</time>
      </trkpt>
      <trkpt lat="50.67799" lon="3.0621">
        <ele>21</ele>
        <time>2010-01-01T05:31:19Z</time>
      </trkpt>
      <trkpt lat="50.67824" lon="3.06299">
        <ele>21</ele>
        <time>2010-01-01T05:31:44Z</time>
      </trkpt>
      <trkpt lat="50.67804" lon="3.06322">
        <ele>21</ele>
      </trkpt>
      <trkpt lat="50.67761" lon="3.06361">
        <ele>21</ele>
      </trkpt>
      <trkpt lat="50.67788" lon="3.06435">
        <ele>20</ele>
      </trkpt>
      <trkpt lat="50.67856" lon="3.06381">
        <ele>21</ele>
      </trkpt>
      <trkpt lat="50.67987" lon="3.06778">
        <ele>20</ele>
      </trkpt>
    </trkseg>
  </trk>
</gpx>